<?xml version='1.0' encoding='UTF-8'?><gpx version="1.1" creator="JPX - https://github.com/jenetics/jpx" xmlns="http://www.topografix.com/GPX/1/1"><trk><trkseg><trkpt lat="41.6649101" lon="-4.4889439"><ele>867.0</ele><time>2026-04-05T12:26:46.13Z</time></trkpt><trkpt lat="41.6649755" lon="-4.488735"><ele>867.0</ele><time>2026-04-05T12:26:47.13Z</time></trkpt><trkpt lat="41.6650354" lon="-4.4884792"><ele>867.0</ele><time>2026-04-05T12:26:48.144Z</time></trkpt><trkpt lat="41.6650728" lon="-4.4882967"><ele>867.0</ele><time>2026-04-05T12:26:49.169Z</time></trkpt><trkpt lat="41.6650961" lon="-4.4881579"><ele>867.0</ele><time>2026-04-05T12:26:50.193Z</time></trkpt><trkpt lat="41.6651267" lon="-4.488057"><ele>867.0</ele><time>2026-04-05T12:26:52.216Z</time></trkpt><trkpt lat="41.6651017" lon="-4.4879651"><ele>867.0</ele><time>2026-04-05T12:27:33.288Z</time></trkpt><trkpt lat="41.6650615" lon="-4.4880365"><ele>867.0</ele><time>2026-04-05T12:27:37.294Z</time></trkpt><trkpt lat="41.6650264" lon="-4.4881791"><ele>867.0</ele><time>2026-04-05T12:27:39.302Z</time></trkpt><trkpt lat="41.6649818" lon="-4.4883095"><ele>867.0</ele><time>2026-04-05T12:27:40.293Z</time></trkpt><trkpt lat="41.664922" lon="-4.4884558"><ele>867.0</ele><time>2026-04-05T12:27:41.308Z</time></trkpt><trkpt lat="41.6648601" lon="-4.4886353"><ele>867.0</ele><time>2026-04-05T12:27:42.302Z</time></trkpt><trkpt lat="41.6648047" lon="-4.4888263"><ele>867.0</ele><time>2026-04-05T12:27:43.307Z</time></trkpt><trkpt lat="41.6647615" lon="-4.4890223"><ele>867.0</ele><time>2026-04-05T12:27:44.314Z</time></trkpt><trkpt lat="41.66471" lon="-4.4891912"><ele>867.0</ele><time>2026-04-05T12:27:45.322Z</time></trkpt><trkpt lat="41.6646476" lon="-4.4893644"><ele>867.0</ele><time>2026-04-05T12:27:46.306Z</time></trkpt><trkpt lat="41.6645824" lon="-4.4895481"><ele>867.0</ele><time>2026-04-05T12:27:47.306Z</time></trkpt><trkpt lat="41.6645044" lon="-4.4897279"><ele>867.0</ele><time>2026-04-05T12:27:48.303Z</time></trkpt><trkpt lat="41.6644253" lon="-4.4899054"><ele>867.0</ele><time>2026-04-05T12:27:49.3Z</time></trkpt><trkpt lat="41.664347" lon="-4.4900452"><ele>867.0</ele><time>2026-04-05T12:27:50.3Z</time></trkpt><trkpt lat="41.664281" lon="-4.490157"><ele>867.0</ele><time>2026-04-05T12:27:51.302Z</time></trkpt><trkpt lat="41.6642135" lon="-4.4902812"><ele>867.0</ele><time>2026-04-05T12:27:52.29Z</time></trkpt><trkpt lat="41.6641401" lon="-4.4904227"><ele>867.0</ele><time>2026-04-05T12:27:53.303Z</time></trkpt><trkpt lat="41.664059" lon="-4.4905967"><ele>867.0</ele><time>2026-04-05T12:27:54.295Z</time></trkpt><trkpt lat="41.6639825" lon="-4.4907848"><ele>867.0</ele><time>2026-04-05T12:27:55.304Z</time></trkpt><trkpt lat="41.6638959" lon="-4.4909594"><ele>866.75</ele><time>2026-04-05T12:27:56.303Z</time></trkpt><trkpt lat="41.6638006" lon="-4.4911352"><ele>866.5</ele><time>2026-04-05T12:27:57.303Z</time></trkpt><trkpt lat="41.6637087" lon="-4.4912815"><ele>866.25</ele><time>2026-04-05T12:27:58.29Z</time></trkpt><trkpt lat="41.6636064" lon="-4.4914158"><ele>866.0</ele><time>2026-04-05T12:27:59.296Z</time></trkpt><trkpt lat="41.663484" lon="-4.4915659"><ele>865.6666666666667</ele><time>2026-04-05T12:28:00.309Z</time></trkpt><trkpt lat="41.6633478" lon="-4.4917213"><ele>865.3333333333333</ele><time>2026-04-05T12:28:01.305Z</time></trkpt><trkpt lat="41.6632258" lon="-4.4918791"><ele>865.0</ele><time>2026-04-05T12:28:02.306Z</time></trkpt><trkpt lat="41.663132" lon="-4.4920142"><ele>865.0</ele><time>2026-04-05T12:28:03.305Z</time></trkpt><trkpt lat="41.6630336" lon="-4.4921557"><ele>865.0</ele><time>2026-04-05T12:28:04.307Z</time></trkpt><trkpt lat="41.6629319" lon="-4.4923026"><ele>865.0</ele><time>2026-04-05T12:28:05.313Z</time></trkpt><trkpt lat="41.6628433" lon="-4.492442"><ele>865.0</ele><time>2026-04-05T12:28:06.307Z</time></trkpt><trkpt lat="41.6627665" lon="-4.492568"><ele>865.0</ele><time>2026-04-05T12:28:07.306Z</time></trkpt><trkpt lat="41.6626876" lon="-4.4926873"><ele>865.0</ele><time>2026-04-05T12:28:08.314Z</time></trkpt><trkpt lat="41.6625943" lon="-4.4928157"><ele>865.0</ele><time>2026-04-05T12:28:09.308Z</time></trkpt><trkpt lat="41.6624849" lon="-4.4929312"><ele>865.0</ele><time>2026-04-05T12:28:10.313Z</time></trkpt><trkpt lat="41.6623809" lon="-4.4930513"><ele>864.75</ele><time>2026-04-05T12:28:11.311Z</time></trkpt><trkpt lat="41.6622798" lon="-4.4931806"><ele>864.5</ele><time>2026-04-05T12:28:12.315Z</time></trkpt><trkpt lat="41.6621899" lon="-4.4933046"><ele>864.25</ele><time>2026-04-05T12:28:13.302Z</time></trkpt><trkpt lat="41.6620974" lon="-4.4934106"><ele>864.0</ele><time>2026-04-05T12:28:14.312Z</time></trkpt><trkpt lat="41.6620019" lon="-4.4935502"><ele>864.25</ele><time>2026-04-05T12:28:15.311Z</time></trkpt><trkpt lat="41.661905" lon="-4.493714"><ele>864.5</ele><time>2026-04-05T12:28:16.337Z</time></trkpt><trkpt lat="41.6618008" lon="-4.4938605"><ele>864.75</ele><time>2026-04-05T12:28:17.319Z</time></trkpt><trkpt lat="41.6617005" lon="-4.493992"><ele>865.0</ele><time>2026-04-05T12:28:18.321Z</time></trkpt><trkpt lat="41.661621" lon="-4.494109"><ele>865.0</ele><time>2026-04-05T12:28:19.318Z</time></trkpt><trkpt lat="41.6615586" lon="-4.4942433"><ele>865.0</ele><time>2026-04-05T12:28:20.311Z</time></trkpt><trkpt lat="41.661493" lon="-4.4944058"><ele>865.0</ele><time>2026-04-05T12:28:21.315Z</time></trkpt><trkpt lat="41.6614327" lon="-4.4945801"><ele>865.0</ele><time>2026-04-05T12:28:22.318Z</time></trkpt><trkpt lat="41.6613701" lon="-4.4947295"><ele>865.0</ele><time>2026-04-05T12:28:23.311Z</time></trkpt><trkpt lat="41.6612998" lon="-4.4948709"><ele>865.0</ele><time>2026-04-05T12:28:24.306Z</time></trkpt><trkpt lat="41.6612167" lon="-4.4950412"><ele>865.0</ele><time>2026-04-05T12:28:25.301Z</time></trkpt><trkpt lat="41.6611221" lon="-4.4952266"><ele>865.0</ele><time>2026-04-05T12:28:26.304Z</time></trkpt><trkpt lat="41.6609989" lon="-4.495415"><ele>865.3333333333333</ele><time>2026-04-05T12:28:27.3Z</time></trkpt><trkpt lat="41.6608689" lon="-4.4955882"><ele>865.6666666666667</ele><time>2026-04-05T12:28:28.306Z</time></trkpt><trkpt lat="41.6607243" lon="-4.4957486"><ele>866.0</ele><time>2026-04-05T12:28:29.323Z</time></trkpt><trkpt lat="41.6605855" lon="-4.4959038"><ele>866.0</ele><time>2026-04-05T12:28:30.302Z</time></trkpt><trkpt lat="41.6604773" lon="-4.4960451"><ele>866.0</ele><time>2026-04-05T12:28:31.308Z</time></trkpt><trkpt lat="41.6603806" lon="-4.4961799"><ele>866.0</ele><time>2026-04-05T12:28:32.31Z</time></trkpt><trkpt lat="41.6602978" lon="-4.4963226"><ele>866.0</ele><time>2026-04-05T12:28:33.299Z</time></trkpt><trkpt lat="41.6602175" lon="-4.4964181"><ele>865.5</ele><time>2026-04-05T12:28:34.306Z</time></trkpt><trkpt lat="41.6601578" lon="-4.4965175"><ele>865.0</ele><time>2026-04-05T12:28:35.307Z</time></trkpt><trkpt lat="41.6601057" lon="-4.4966495"><ele>864.5</ele><time>2026-04-05T12:28:36.314Z</time></trkpt><trkpt lat="41.6600542" lon="-4.4968343"><ele>864.0</ele><time>2026-04-05T12:28:37.312Z</time></trkpt><trkpt lat="41.6600119" lon="-4.4970282"><ele>864.0</ele><time>2026-04-05T12:28:38.309Z</time></trkpt><trkpt lat="41.6599912" lon="-4.4972104"><ele>864.0</ele><time>2026-04-05T12:28:39.312Z</time></trkpt><trkpt lat="41.6599508" lon="-4.4973915"><ele>864.0</ele><time>2026-04-05T12:28:40.308Z</time></trkpt><trkpt lat="41.6599011" lon="-4.4975845"><ele>864.0</ele><time>2026-04-05T12:28:41.316Z</time></trkpt><trkpt lat="41.6598598" lon="-4.4977615"><ele>863.5</ele><time>2026-04-05T12:28:42.308Z</time></trkpt><trkpt lat="41.6598126" lon="-4.4979322"><ele>863.0</ele><time>2026-04-05T12:28:43.303Z</time></trkpt><trkpt lat="41.6597965" lon="-4.4981241"><ele>862.5</ele><time>2026-04-05T12:28:44.317Z</time></trkpt><trkpt lat="41.6597751" lon="-4.4983276"><ele>862.0</ele><time>2026-04-05T12:28:45.313Z</time></trkpt><trkpt lat="41.6597339" lon="-4.4985325"><ele>862.0</ele><time>2026-04-05T12:28:46.313Z</time></trkpt><trkpt lat="41.6596893" lon="-4.4987213"><ele>862.0</ele><time>2026-04-05T12:28:47.333Z</time></trkpt><trkpt lat="41.6596462" lon="-4.4988979"><ele>862.0</ele><time>2026-04-05T12:28:48.316Z</time></trkpt><trkpt lat="41.6596085" lon="-4.4990629"><ele>862.0</ele><time>2026-04-05T12:28:49.321Z</time></trkpt><trkpt lat="41.6595606" lon="-4.4992337"><ele>862.0</ele><time>2026-04-05T12:28:50.314Z</time></trkpt><trkpt lat="41.6595167" lon="-4.499401"><ele>862.0</ele><time>2026-04-05T12:28:51.301Z</time></trkpt><trkpt lat="41.6595075" lon="-4.4995532"><ele>862.0</ele><time>2026-04-05T12:28:52.308Z</time></trkpt><trkpt lat="41.6595051" lon="-4.4997102"><ele>862.0</ele><time>2026-04-05T12:28:53.304Z</time></trkpt><trkpt lat="41.6595264" lon="-4.499867"><ele>862.0</ele><time>2026-04-05T12:28:54.306Z</time></trkpt><trkpt lat="41.6595683" lon="-4.5000057"><ele>862.0</ele><time>2026-04-05T12:28:55.31Z</time></trkpt><trkpt lat="41.6596062" lon="-4.5001532"><ele>862.0</ele><time>2026-04-05T12:28:56.298Z</time></trkpt><trkpt lat="41.6596289" lon="-4.5002828"><ele>862.0</ele><time>2026-04-05T12:28:57.28Z</time></trkpt><trkpt lat="41.6596251" lon="-4.5004157"><ele>862.0</ele><time>2026-04-05T12:28:58.277Z</time></trkpt><trkpt lat="41.6595985" lon="-4.5005824"><ele>862.0</ele><time>2026-04-05T12:28:59.28Z</time></trkpt><trkpt lat="41.6595604" lon="-4.5007665"><ele>862.0</ele><time>2026-04-05T12:29:00.283Z</time></trkpt><trkpt lat="41.6595285" lon="-4.5009533"><ele>862.0</ele><time>2026-04-05T12:29:01.285Z</time></trkpt><trkpt lat="41.6595109" lon="-4.501136"><ele>862.0</ele><time>2026-04-05T12:29:02.287Z</time></trkpt><trkpt lat="41.6594861" lon="-4.5013289"><ele>862.75</ele><time>2026-04-05T12:29:03.288Z</time></trkpt><trkpt lat="41.6594414" lon="-4.5015324"><ele>863.5</ele><time>2026-04-05T12:29:04.291Z</time></trkpt><trkpt lat="41.6594044" lon="-4.5017288"><ele>864.25</ele><time>2026-04-05T12:29:05.286Z</time></trkpt><trkpt lat="41.6593751" lon="-4.5019058"><ele>865.0</ele><time>2026-04-05T12:29:06.293Z</time></trkpt><trkpt lat="41.6593704" lon="-4.5020548"><ele>864.9999999999999</ele><time>2026-04-05T12:29:07.281Z</time></trkpt><trkpt lat="41.6593806" lon="-4.5021929"><ele>865.0</ele><time>2026-04-05T12:29:08.288Z</time></trkpt><trkpt lat="41.6593939" lon="-4.5022994"><ele>865.0</ele><time>2026-04-05T12:29:09.283Z</time></trkpt><trkpt lat="41.6593645" lon="-4.5023962"><ele>865.0</ele><time>2026-04-05T12:29:10.29Z</time></trkpt><trkpt lat="41.659309" lon="-4.5024901"><ele>864.9999999999999</ele><time>2026-04-05T12:29:11.284Z</time></trkpt><trkpt lat="41.6592414" lon="-4.5025821"><ele>865.0</ele><time>2026-04-05T12:29:12.288Z</time></trkpt><trkpt lat="41.6591971" lon="-4.5026993"><ele>865.0</ele><time>2026-04-05T12:29:13.294Z</time></trkpt><trkpt lat="41.6591745" lon="-4.5028611"><ele>865.0</ele><time>2026-04-05T12:29:14.297Z</time></trkpt><trkpt lat="41.6591601" lon="-4.5030318"><ele>865.0</ele><time>2026-04-05T12:29:15.287Z</time></trkpt><trkpt lat="41.6591515" lon="-4.503179"><ele>865.0</ele><time>2026-04-05T12:29:16.292Z</time></trkpt><trkpt lat="41.659163" lon="-4.5033142"><ele>865.0</ele><time>2026-04-05T12:29:17.304Z</time></trkpt><trkpt lat="41.6591758" lon="-4.5034482"><ele>865.0</ele><time>2026-04-05T12:29:18.301Z</time></trkpt><trkpt lat="41.6591702" lon="-4.5035884"><ele>865.0</ele><time>2026-04-05T12:29:19.29Z</time></trkpt><trkpt lat="41.6591404" lon="-4.5037476"><ele>865.0</ele><time>2026-04-05T12:29:20.288Z</time></trkpt><trkpt lat="41.6590948" lon="-4.5039118"><ele>865.0</ele><time>2026-04-05T12:29:21.289Z</time></trkpt><trkpt lat="41.6590445" lon="-4.5040571"><ele>865.0</ele><time>2026-04-05T12:29:22.299Z</time></trkpt><trkpt lat="41.6589931" lon="-4.504199"><ele>865.0</ele><time>2026-04-05T12:29:23.3Z</time></trkpt><trkpt lat="41.6589458" lon="-4.5043557"><ele>865.0</ele><time>2026-04-05T12:29:24.299Z</time></trkpt><trkpt lat="41.6589034" lon="-4.5045286"><ele>865.3333333333333</ele><time>2026-04-05T12:29:25.299Z</time></trkpt><trkpt lat="41.6588669" lon="-4.5047237"><ele>865.6666666666667</ele><time>2026-04-05T12:29:26.297Z</time></trkpt><trkpt lat="41.6588215" lon="-4.5049308"><ele>866.0</ele><time>2026-04-05T12:29:27.302Z</time></trkpt><trkpt lat="41.6587965" lon="-4.5051414"><ele>866.0</ele><time>2026-04-05T12:29:28.296Z</time></trkpt><trkpt lat="41.658779" lon="-4.505368"><ele>866.0</ele><time>2026-04-05T12:29:29.293Z</time></trkpt><trkpt lat="41.6587402" lon="-4.5056203"><ele>866.0</ele><time>2026-04-05T12:29:30.291Z</time></trkpt><trkpt lat="41.6586922" lon="-4.5058855"><ele>865.6666666666667</ele><time>2026-04-05T12:29:31.3Z</time></trkpt><trkpt lat="41.6586486" lon="-4.5061302"><ele>865.3333333333333</ele><time>2026-04-05T12:29:32.288Z</time></trkpt><trkpt lat="41.6586045" lon="-4.5063556"><ele>865.0</ele><time>2026-04-05T12:29:33.308Z</time></trkpt><trkpt lat="41.6585512" lon="-4.5065833"><ele>864.6666666666666</ele><time>2026-04-05T12:29:34.298Z</time></trkpt><trkpt lat="41.6585191" lon="-4.5068012"><ele>864.3333333333333</ele><time>2026-04-05T12:29:35.289Z</time></trkpt><trkpt lat="41.6584973" lon="-4.5070235"><ele>864.0</ele><time>2026-04-05T12:29:36.294Z</time></trkpt><trkpt lat="41.6584727" lon="-4.5072464"><ele>864.0</ele><time>2026-04-05T12:29:37.298Z</time></trkpt><trkpt lat="41.658441" lon="-4.507464"><ele>864.0</ele><time>2026-04-05T12:29:38.297Z</time></trkpt><trkpt lat="41.6584018" lon="-4.507678"><ele>864.0</ele><time>2026-04-05T12:29:39.294Z</time></trkpt><trkpt lat="41.6583669" lon="-4.5079153"><ele>864.0</ele><time>2026-04-05T12:29:40.292Z</time></trkpt><trkpt lat="41.6583445" lon="-4.5081752"><ele>864.0</ele><time>2026-04-05T12:29:41.292Z</time></trkpt><trkpt lat="41.6583317" lon="-4.5084071"><ele>864.0</ele><time>2026-04-05T12:29:42.287Z</time></trkpt><trkpt lat="41.658308" lon="-4.5086156"><ele>864.25</ele><time>2026-04-05T12:29:43.299Z</time></trkpt><trkpt lat="41.658288" lon="-4.5088273"><ele>864.5</ele><time>2026-04-05T12:29:44.302Z</time></trkpt><trkpt lat="41.6582751" lon="-4.5090258"><ele>864.75</ele><time>2026-04-05T12:29:45.298Z</time></trkpt><trkpt lat="41.6582596" lon="-4.5092009"><ele>865.0</ele><time>2026-04-05T12:29:46.294Z</time></trkpt><trkpt lat="41.6582388" lon="-4.5093664"><ele>865.0</ele><time>2026-04-05T12:29:47.296Z</time></trkpt><trkpt lat="41.6582321" lon="-4.5095217"><ele>865.0</ele><time>2026-04-05T12:29:48.303Z</time></trkpt><trkpt lat="41.6582293" lon="-4.5096876"><ele>865.0</ele><time>2026-04-05T12:29:49.32Z</time></trkpt><trkpt lat="41.6582203" lon="-4.5098523"><ele>865.0</ele><time>2026-04-05T12:29:50.303Z</time></trkpt><trkpt lat="41.6582081" lon="-4.5100047"><ele>865.0</ele><time>2026-04-05T12:29:51.304Z</time></trkpt><trkpt lat="41.6581997" lon="-4.5101446"><ele>865.0</ele><time>2026-04-05T12:29:52.302Z</time></trkpt><trkpt lat="41.6582102" lon="-4.5102746"><ele>865.0</ele><time>2026-04-05T12:29:53.301Z</time></trkpt><trkpt lat="41.658234" lon="-4.5104054"><ele>865.0</ele><time>2026-04-05T12:29:54.286Z</time></trkpt><trkpt lat="41.6582606" lon="-4.5105662"><ele>865.0</ele><time>2026-04-05T12:29:55.305Z</time></trkpt><trkpt lat="41.6582693" lon="-4.5107631"><ele>865.3333333333333</ele><time>2026-04-05T12:29:56.288Z</time></trkpt><trkpt lat="41.6582599" lon="-4.5110036"><ele>865.6666666666667</ele><time>2026-04-05T12:29:57.294Z</time></trkpt><trkpt lat="41.6582382" lon="-4.5112931"><ele>866.0</ele><time>2026-04-05T12:29:58.29Z</time></trkpt><trkpt lat="41.658213" lon="-4.5115942"><ele>865.3333333333334</ele><time>2026-04-05T12:29:59.294Z</time></trkpt><trkpt lat="41.6581951" lon="-4.511869"><ele>864.6666666666667</ele><time>2026-04-05T12:30:00.294Z</time></trkpt><trkpt lat="41.6581725" lon="-4.5121247"><ele>864.0</ele><time>2026-04-05T12:30:01.303Z</time></trkpt><trkpt lat="41.658152" lon="-4.5123679"><ele>864.0</ele><time>2026-04-05T12:30:02.296Z</time></trkpt><trkpt lat="41.6581478" lon="-4.5126138"><ele>864.0</ele><time>2026-04-05T12:30:03.289Z</time></trkpt><trkpt lat="41.6581552" lon="-4.5128444"><ele>864.0</ele><time>2026-04-05T12:30:04.296Z</time></trkpt><trkpt lat="41.6581482" lon="-4.5130751"><ele>863.6666666666667</ele><time>2026-04-05T12:30:05.3Z</time></trkpt><trkpt lat="41.6581361" lon="-4.5132951"><ele>863.3333333333334</ele><time>2026-04-05T12:30:06.296Z</time></trkpt><trkpt lat="41.6581229" lon="-4.5134963"><ele>863.0</ele><time>2026-04-05T12:30:07.288Z</time></trkpt><trkpt lat="41.6581266" lon="-4.5136801"><ele>863.25</ele><time>2026-04-05T12:30:08.294Z</time></trkpt><trkpt lat="41.6581323" lon="-4.5138626"><ele>863.5</ele><time>2026-04-05T12:30:09.304Z</time></trkpt><trkpt lat="41.6581401" lon="-4.5140274"><ele>863.75</ele><time>2026-04-05T12:30:10.301Z</time></trkpt><trkpt lat="41.6581436" lon="-4.5141936"><ele>864.0</ele><time>2026-04-05T12:30:11.296Z</time></trkpt><trkpt lat="41.6581544" lon="-4.5143726"><ele>864.0</ele><time>2026-04-05T12:30:12.296Z</time></trkpt><trkpt lat="41.6581663" lon="-4.5145483"><ele>864.0</ele><time>2026-04-05T12:30:13.297Z</time></trkpt><trkpt lat="41.6581768" lon="-4.5147117"><ele>864.0</ele><time>2026-04-05T12:30:14.299Z</time></trkpt><trkpt lat="41.6581846" lon="-4.5148948"><ele>864.0</ele><time>2026-04-05T12:30:15.295Z</time></trkpt><trkpt lat="41.6582068" lon="-4.5150963"><ele>863.6666666666667</ele><time>2026-04-05T12:30:16.298Z</time></trkpt><trkpt lat="41.6582401" lon="-4.5153059"><ele>863.3333333333334</ele><time>2026-04-05T12:30:17.297Z</time></trkpt><trkpt lat="41.6582789" lon="-4.5155261"><ele>863.0</ele><time>2026-04-05T12:30:18.298Z</time></trkpt><trkpt lat="41.6583215" lon="-4.5157512"><ele>862.6666666666667</ele><time>2026-04-05T12:30:19.303Z</time></trkpt><trkpt lat="41.6583681" lon="-4.5159667"><ele>862.3333333333333</ele><time>2026-04-05T12:30:20.315Z</time></trkpt><trkpt lat="41.6584034" lon="-4.5161687"><ele>862.0</ele><time>2026-04-05T12:30:21.294Z</time></trkpt><trkpt lat="41.6584508" lon="-4.5163592"><ele>861.6666666666666</ele><time>2026-04-05T12:30:22.295Z</time></trkpt><trkpt lat="41.6585071" lon="-4.5165319"><ele>861.3333333333333</ele><time>2026-04-05T12:30:23.299Z</time></trkpt><trkpt lat="41.6585409" lon="-4.5167207"><ele>861.0</ele><time>2026-04-05T12:30:24.283Z</time></trkpt><trkpt lat="41.6585381" lon="-4.51695"><ele>861.3333333333333</ele><time>2026-04-05T12:30:25.287Z</time></trkpt><trkpt lat="41.6585091" lon="-4.5172112"><ele>861.6666666666666</ele><time>2026-04-05T12:30:26.292Z</time></trkpt><trkpt lat="41.6584818" lon="-4.5174669"><ele>862.0</ele><time>2026-04-05T12:30:27.282Z</time></trkpt><trkpt lat="41.6584837" lon="-4.517713"><ele>862.6666666666666</ele><time>2026-04-05T12:30:28.291Z</time></trkpt><trkpt lat="41.6584795" lon="-4.5179579"><ele>863.3333333333333</ele><time>2026-04-05T12:30:29.293Z</time></trkpt><trkpt lat="41.6584593" lon="-4.5182082"><ele>864.0</ele><time>2026-04-05T12:30:30.295Z</time></trkpt><trkpt lat="41.6584445" lon="-4.5184658"><ele>864.0</ele><time>2026-04-05T12:30:31.297Z</time></trkpt><trkpt lat="41.6584269" lon="-4.5187169"><ele>864.0</ele><time>2026-04-05T12:30:32.293Z</time></trkpt><trkpt lat="41.6583957" lon="-4.51895"><ele>864.0</ele><time>2026-04-05T12:30:33.294Z</time></trkpt><trkpt lat="41.6583709" lon="-4.5191857"><ele>864.0</ele><time>2026-04-05T12:30:34.294Z</time></trkpt><trkpt lat="41.6583542" lon="-4.5194255"><ele>864.0</ele><time>2026-04-05T12:30:35.294Z</time></trkpt><trkpt lat="41.6583369" lon="-4.5196731"><ele>864.0</ele><time>2026-04-05T12:30:36.299Z</time></trkpt><trkpt lat="41.6583127" lon="-4.5199097"><ele>864.0</ele><time>2026-04-05T12:30:37.295Z</time></trkpt><trkpt lat="41.6582944" lon="-4.5201183"><ele>864.0</ele><time>2026-04-05T12:30:38.296Z</time></trkpt><trkpt lat="41.6582812" lon="-4.5202996"><ele>864.0</ele><time>2026-04-05T12:30:39.298Z</time></trkpt><trkpt lat="41.6582668" lon="-4.5204476"><ele>864.0</ele><time>2026-04-05T12:30:40.289Z</time></trkpt><trkpt lat="41.6582636" lon="-4.5205747"><ele>863.8000000000001</ele><time>2026-04-05T12:30:41.29Z</time></trkpt><trkpt lat="41.6582706" lon="-4.520681"><ele>863.6000000000001</ele><time>2026-04-05T12:30:42.29Z</time></trkpt><trkpt lat="41.6582953" lon="-4.5208245"><ele>863.4</ele><time>2026-04-05T12:30:44.303Z</time></trkpt><trkpt lat="41.6583059" lon="-4.5209943"><ele>863.2</ele><time>2026-04-05T12:30:46.303Z</time></trkpt><trkpt lat="41.6582764" lon="-4.5211565"><ele>863.0</ele><time>2026-04-05T12:30:47.298Z</time></trkpt><trkpt lat="41.6582466" lon="-4.521321"><ele>863.0</ele><time>2026-04-05T12:30:48.289Z</time></trkpt><trkpt lat="41.6582369" lon="-4.5214951"><ele>863.0</ele><time>2026-04-05T12:30:49.296Z</time></trkpt><trkpt lat="41.6582387" lon="-4.5216844"><ele>863.0</ele><time>2026-04-05T12:30:50.293Z</time></trkpt><trkpt lat="41.6582502" lon="-4.5218887"><ele>863.0</ele><time>2026-04-05T12:30:51.319Z</time></trkpt><trkpt lat="41.6582572" lon="-4.5221055"><ele>862.3333333333334</ele><time>2026-04-05T12:30:52.295Z</time></trkpt><trkpt lat="41.6582742" lon="-4.5223409"><ele>861.6666666666667</ele><time>2026-04-05T12:30:53.296Z</time></trkpt><trkpt lat="41.6582974" lon="-4.5225936"><ele>861.0</ele><time>2026-04-05T12:30:54.298Z</time></trkpt><trkpt lat="41.6583278" lon="-4.5228415"><ele>861.0</ele><time>2026-04-05T12:30:55.296Z</time></trkpt><trkpt lat="41.6583648" lon="-4.5230595"><ele>861.0</ele><time>2026-04-05T12:30:56.296Z</time></trkpt><trkpt lat="41.6584022" lon="-4.5232566"><ele>861.0</ele><time>2026-04-05T12:30:57.297Z</time></trkpt><trkpt lat="41.658426" lon="-4.5234558"><ele>861.0</ele><time>2026-04-05T12:30:58.3Z</time></trkpt><trkpt lat="41.6584618" lon="-4.5236692"><ele>861.0</ele><time>2026-04-05T12:30:59.294Z</time></trkpt><trkpt lat="41.6584997" lon="-4.5238889"><ele>861.0</ele><time>2026-04-05T12:31:00.284Z</time></trkpt><trkpt lat="41.6585379" lon="-4.5240783"><ele>861.1999999999999</ele><time>2026-04-05T12:31:01.307Z</time></trkpt><trkpt lat="41.6585777" lon="-4.5242103"><ele>861.3999999999999</ele><time>2026-04-05T12:31:02.289Z</time></trkpt><trkpt lat="41.6586363" lon="-4.5243299"><ele>861.6</ele><time>2026-04-05T12:31:03.298Z</time></trkpt><trkpt lat="41.6587057" lon="-4.524444"><ele>861.8</ele><time>2026-04-05T12:31:04.302Z</time></trkpt><trkpt lat="41.6587676" lon="-4.5245416"><ele>862.0</ele><time>2026-04-05T12:31:05.289Z</time></trkpt><trkpt lat="41.6588111" lon="-4.5246401"><ele>862.25</ele><time>2026-04-05T12:31:06.283Z</time></trkpt><trkpt lat="41.6588365" lon="-4.5247696"><ele>862.5</ele><time>2026-04-05T12:31:07.293Z</time></trkpt><trkpt lat="41.6588575" lon="-4.5249428"><ele>862.75</ele><time>2026-04-05T12:31:08.282Z</time></trkpt><trkpt lat="41.6588842" lon="-4.5251515"><ele>863.0</ele><time>2026-04-05T12:31:09.302Z</time></trkpt><trkpt lat="41.6589156" lon="-4.5254041"><ele>863.0</ele><time>2026-04-05T12:31:10.287Z</time></trkpt><trkpt lat="41.6589545" lon="-4.5256244"><ele>863.0</ele><time>2026-04-05T12:31:11.295Z</time></trkpt><trkpt lat="41.6590042" lon="-4.5257899"><ele>863.0</ele><time>2026-04-05T12:31:12.294Z</time></trkpt><trkpt lat="41.6590383" lon="-4.5259325"><ele>863.0</ele><time>2026-04-05T12:31:13.294Z</time></trkpt><trkpt lat="41.6590591" lon="-4.5260768"><ele>862.5</ele><time>2026-04-05T12:31:14.306Z</time></trkpt><trkpt lat="41.6590755" lon="-4.526229"><ele>862.0</ele><time>2026-04-05T12:31:15.291Z</time></trkpt><trkpt lat="41.6590826" lon="-4.526406"><ele>861.5</ele><time>2026-04-05T12:31:16.293Z</time></trkpt><trkpt lat="41.6590878" lon="-4.5265997"><ele>861.0</ele><time>2026-04-05T12:31:17.302Z</time></trkpt><trkpt lat="41.6590876" lon="-4.5268123"><ele>861.0</ele><time>2026-04-05T12:31:18.304Z</time></trkpt><trkpt lat="41.6590842" lon="-4.5270043"><ele>861.0</ele><time>2026-04-05T12:31:19.304Z</time></trkpt><trkpt lat="41.6590775" lon="-4.5271782"><ele>861.0</ele><time>2026-04-05T12:31:20.305Z</time></trkpt><trkpt lat="41.6590811" lon="-4.5273337"><ele>861.0</ele><time>2026-04-05T12:31:21.298Z</time></trkpt><trkpt lat="41.6590735" lon="-4.5274666"><ele>861.25</ele><time>2026-04-05T12:31:22.301Z</time></trkpt><trkpt lat="41.6590696" lon="-4.5275985"><ele>861.5</ele><time>2026-04-05T12:31:23.286Z</time></trkpt><trkpt lat="41.6590849" lon="-4.5277661"><ele>861.75</ele><time>2026-04-05T12:31:24.308Z</time></trkpt><trkpt lat="41.6591051" lon="-4.5279608"><ele>862.0</ele><time>2026-04-05T12:31:25.29Z</time></trkpt><trkpt lat="41.6591304" lon="-4.5281343"><ele>861.9999999999999</ele><time>2026-04-05T12:31:26.306Z</time></trkpt><trkpt lat="41.6591564" lon="-4.5282637"><ele>862.0</ele><time>2026-04-05T12:31:27.299Z</time></trkpt><trkpt lat="41.6591789" lon="-4.5283722"><ele>862.0</ele><time>2026-04-05T12:31:28.301Z</time></trkpt><trkpt lat="41.6592074" lon="-4.5284656"><ele>862.0</ele><time>2026-04-05T12:31:29.296Z</time></trkpt><trkpt lat="41.6592537" lon="-4.528548"><ele>861.9999999999999</ele><time>2026-04-05T12:31:30.294Z</time></trkpt><trkpt lat="41.6593002" lon="-4.5286063"><ele>862.0</ele><time>2026-04-05T12:31:31.306Z</time></trkpt><trkpt lat="41.6593433" lon="-4.5286701"><ele>862.0</ele><time>2026-04-05T12:31:32.29Z</time></trkpt><trkpt lat="41.6593471" lon="-4.5288447"><ele>862.0</ele><time>2026-04-05T12:31:34.293Z</time></trkpt><trkpt lat="41.6593653" lon="-4.5289779"><ele>862.0</ele><time>2026-04-05T12:31:35.296Z</time></trkpt><trkpt lat="41.6594054" lon="-4.5291554"><ele>862.0</ele><time>2026-04-05T12:31:36.281Z</time></trkpt><trkpt lat="41.659453" lon="-4.5293687"><ele>862.0</ele><time>2026-04-05T12:31:37.299Z</time></trkpt><trkpt lat="41.6595107" lon="-4.5296556"><ele>862.0</ele><time>2026-04-05T12:31:38.298Z</time></trkpt><trkpt lat="41.659585" lon="-4.5299714"><ele>862.0</ele><time>2026-04-05T12:31:39.288Z</time></trkpt><trkpt lat="41.6596496" lon="-4.5302531"><ele>862.0</ele><time>2026-04-05T12:31:40.283Z</time></trkpt><trkpt lat="41.6597011" lon="-4.5305184"><ele>862.0</ele><time>2026-04-05T12:31:41.296Z</time></trkpt><trkpt lat="41.6597469" lon="-4.5308035"><ele>862.3333333333333</ele><time>2026-04-05T12:31:42.294Z</time></trkpt><trkpt lat="41.6597807" lon="-4.5310752"><ele>862.6666666666667</ele><time>2026-04-05T12:31:43.29Z</time></trkpt><trkpt lat="41.6598013" lon="-4.5313227"><ele>863.0</ele><time>2026-04-05T12:31:44.289Z</time></trkpt><trkpt lat="41.659826" lon="-4.5315508"><ele>863.0</ele><time>2026-04-05T12:31:45.303Z</time></trkpt><trkpt lat="41.659839" lon="-4.5317782"><ele>863.0</ele><time>2026-04-05T12:31:46.292Z</time></trkpt><trkpt lat="41.6598286" lon="-4.5320237"><ele>863.0</ele><time>2026-04-05T12:31:47.31Z</time></trkpt><trkpt lat="41.6598039" lon="-4.5322592"><ele>863.0</ele><time>2026-04-05T12:31:48.292Z</time></trkpt><trkpt lat="41.6597958" lon="-4.5324722"><ele>863.0</ele><time>2026-04-05T12:31:49.301Z</time></trkpt><trkpt lat="41.6597891" lon="-4.5326611"><ele>863.0</ele><time>2026-04-05T12:31:50.3Z</time></trkpt><trkpt lat="41.6597645" lon="-4.5328553"><ele>863.0</ele><time>2026-04-05T12:31:51.305Z</time></trkpt><trkpt lat="41.6597381" lon="-4.5330599"><ele>863.0</ele><time>2026-04-05T12:31:52.315Z</time></trkpt><trkpt lat="41.6597078" lon="-4.5332627"><ele>863.0</ele><time>2026-04-05T12:31:53.293Z</time></trkpt><trkpt lat="41.6596638" lon="-4.533442"><ele>863.0</ele><time>2026-04-05T12:31:54.296Z</time></trkpt><trkpt lat="41.6596164" lon="-4.5336043"><ele>863.0</ele><time>2026-04-05T12:31:55.3Z</time></trkpt><trkpt lat="41.6595717" lon="-4.5337664"><ele>863.25</ele><time>2026-04-05T12:31:56.305Z</time></trkpt><trkpt lat="41.6595342" lon="-4.5339429"><ele>863.5</ele><time>2026-04-05T12:31:57.303Z</time></trkpt><trkpt lat="41.6595079" lon="-4.5341281"><ele>863.75</ele><time>2026-04-05T12:31:58.307Z</time></trkpt><trkpt lat="41.659483" lon="-4.5343155"><ele>864.0</ele><time>2026-04-05T12:31:59.31Z</time></trkpt><trkpt lat="41.6594561" lon="-4.5345037"><ele>863.5</ele><time>2026-04-05T12:32:00.313Z</time></trkpt><trkpt lat="41.6594215" lon="-4.534683"><ele>863.0</ele><time>2026-04-05T12:32:01.317Z</time></trkpt><trkpt lat="41.6593835" lon="-4.5348581"><ele>862.5</ele><time>2026-04-05T12:32:02.314Z</time></trkpt><trkpt lat="41.6593621" lon="-4.5350317"><ele>862.0</ele><time>2026-04-05T12:32:03.313Z</time></trkpt><trkpt lat="41.6593441" lon="-4.5352204"><ele>862.25</ele><time>2026-04-05T12:32:04.313Z</time></trkpt><trkpt lat="41.6593296" lon="-4.5354097"><ele>862.5</ele><time>2026-04-05T12:32:05.314Z</time></trkpt><trkpt lat="41.6593125" lon="-4.5355852"><ele>862.75</ele><time>2026-04-05T12:32:06.312Z</time></trkpt><trkpt lat="41.6592856" lon="-4.5357496"><ele>863.0</ele><time>2026-04-05T12:32:07.309Z</time></trkpt><trkpt lat="41.6592522" lon="-4.5359122"><ele>863.0</ele><time>2026-04-05T12:32:08.316Z</time></trkpt><trkpt lat="41.6592156" lon="-4.5360796"><ele>863.0</ele><time>2026-04-05T12:32:09.312Z</time></trkpt><trkpt lat="41.6591879" lon="-4.5362364"><ele>863.0</ele><time>2026-04-05T12:32:10.315Z</time></trkpt><trkpt lat="41.659158" lon="-4.5363917"><ele>863.0</ele><time>2026-04-05T12:32:11.31Z</time></trkpt><trkpt lat="41.6591303" lon="-4.5365407"><ele>862.75</ele><time>2026-04-05T12:32:12.312Z</time></trkpt><trkpt lat="41.6591042" lon="-4.5366909"><ele>862.5</ele><time>2026-04-05T12:32:13.317Z</time></trkpt><trkpt lat="41.6590808" lon="-4.5368411"><ele>862.25</ele><time>2026-04-05T12:32:14.313Z</time></trkpt><trkpt lat="41.6590644" lon="-4.5370023"><ele>862.0</ele><time>2026-04-05T12:32:15.314Z</time></trkpt><trkpt lat="41.6590546" lon="-4.5371854"><ele>862.0</ele><time>2026-04-05T12:32:16.306Z</time></trkpt><trkpt lat="41.6590364" lon="-4.5373876"><ele>862.0</ele><time>2026-04-05T12:32:17.313Z</time></trkpt><trkpt lat="41.6590003" lon="-4.5375991"><ele>862.0</ele><time>2026-04-05T12:32:18.31Z</time></trkpt><trkpt lat="41.6589497" lon="-4.5378009"><ele>861.6666666666666</ele><time>2026-04-05T12:32:19.323Z</time></trkpt><trkpt lat="41.6588968" lon="-4.5379949"><ele>861.3333333333333</ele><time>2026-04-05T12:32:20.309Z</time></trkpt><trkpt lat="41.6588514" lon="-4.5381964"><ele>861.0</ele><time>2026-04-05T12:32:21.317Z</time></trkpt><trkpt lat="41.658828" lon="-4.5384089"><ele>861.0</ele><time>2026-04-05T12:32:22.317Z</time></trkpt><trkpt lat="41.6588116" lon="-4.5386245"><ele>861.0</ele><time>2026-04-05T12:32:23.322Z</time></trkpt><trkpt lat="41.6587827" lon="-4.5388288"><ele>861.0</ele><time>2026-04-05T12:32:24.309Z</time></trkpt><trkpt lat="41.6587536" lon="-4.5390199"><ele>860.75</ele><time>2026-04-05T12:32:25.311Z</time></trkpt><trkpt lat="41.6587333" lon="-4.5392113"><ele>860.5</ele><time>2026-04-05T12:32:26.314Z</time></trkpt><trkpt lat="41.6587046" lon="-4.5393983"><ele>860.25</ele><time>2026-04-05T12:32:27.316Z</time></trkpt><trkpt lat="41.658674" lon="-4.5395579"><ele>860.0</ele><time>2026-04-05T12:32:28.309Z</time></trkpt><trkpt lat="41.6586364" lon="-4.5397034"><ele>860.25</ele><time>2026-04-05T12:32:29.303Z</time></trkpt><trkpt lat="41.6586149" lon="-4.539842"><ele>860.5</ele><time>2026-04-05T12:32:30.309Z</time></trkpt><trkpt lat="41.6586" lon="-4.5399968"><ele>860.75</ele><time>2026-04-05T12:32:31.307Z</time></trkpt><trkpt lat="41.6585772" lon="-4.5401473"><ele>861.0</ele><time>2026-04-05T12:32:32.299Z</time></trkpt><trkpt lat="41.6585358" lon="-4.5402998"><ele>860.75</ele><time>2026-04-05T12:32:33.313Z</time></trkpt><trkpt lat="41.6584972" lon="-4.5404673"><ele>860.5</ele><time>2026-04-05T12:32:34.294Z</time></trkpt><trkpt lat="41.6584581" lon="-4.5406501"><ele>860.25</ele><time>2026-04-05T12:32:35.313Z</time></trkpt><trkpt lat="41.6584176" lon="-4.5408602"><ele>860.0</ele><time>2026-04-05T12:32:36.308Z</time></trkpt><trkpt lat="41.6583795" lon="-4.541074"><ele>859.75</ele><time>2026-04-05T12:32:37.311Z</time></trkpt><trkpt lat="41.6583512" lon="-4.5412696"><ele>859.5</ele><time>2026-04-05T12:32:38.31Z</time></trkpt><trkpt lat="41.6583268" lon="-4.541449"><ele>859.25</ele><time>2026-04-05T12:32:39.31Z</time></trkpt><trkpt lat="41.6582941" lon="-4.5416059"><ele>859.0</ele><time>2026-04-05T12:32:40.311Z</time></trkpt><trkpt lat="41.6582516" lon="-4.541762"><ele>859.0</ele><time>2026-04-05T12:32:41.307Z</time></trkpt><trkpt lat="41.6582129" lon="-4.5419484"><ele>859.0</ele><time>2026-04-05T12:32:42.309Z</time></trkpt><trkpt lat="41.6581828" lon="-4.5421493"><ele>859.0</ele><time>2026-04-05T12:32:43.312Z</time></trkpt><trkpt lat="41.6581631" lon="-4.5423586"><ele>859.0</ele><time>2026-04-05T12:32:44.317Z</time></trkpt><trkpt lat="41.6581291" lon="-4.5425773"><ele>859.0</ele><time>2026-04-05T12:32:45.301Z</time></trkpt><trkpt lat="41.6580852" lon="-4.5427943"><ele>859.0</ele><time>2026-04-05T12:32:46.314Z</time></trkpt><trkpt lat="41.6580322" lon="-4.5430044"><ele>859.5</ele><time>2026-04-05T12:32:47.317Z</time></trkpt><trkpt lat="41.6579784" lon="-4.5431824"><ele>860.0</ele><time>2026-04-05T12:32:48.309Z</time></trkpt><trkpt lat="41.6579342" lon="-4.5433286"><ele>860.5</ele><time>2026-04-05T12:32:49.301Z</time></trkpt><trkpt lat="41.6578889" lon="-4.5434652"><ele>861.0</ele><time>2026-04-05T12:32:50.301Z</time></trkpt><trkpt lat="41.6578389" lon="-4.5435885"><ele>861.1666666666666</ele><time>2026-04-05T12:32:51.306Z</time></trkpt><trkpt lat="41.6577752" lon="-4.5436893"><ele>861.3333333333333</ele><time>2026-04-05T12:32:52.313Z</time></trkpt><trkpt lat="41.6577147" lon="-4.5437691"><ele>861.5</ele><time>2026-04-05T12:32:53.308Z</time></trkpt><trkpt lat="41.6576519" lon="-4.5438396"><ele>861.6666666666666</ele><time>2026-04-05T12:32:54.327Z</time></trkpt><trkpt lat="41.6575895" lon="-4.5439113"><ele>861.8333333333333</ele><time>2026-04-05T12:32:55.301Z</time></trkpt><trkpt lat="41.6575414" lon="-4.5439869"><ele>862.0</ele><time>2026-04-05T12:32:56.307Z</time></trkpt><trkpt lat="41.6575165" lon="-4.5440724"><ele>861.5</ele><time>2026-04-05T12:32:57.306Z</time></trkpt><trkpt lat="41.6575042" lon="-4.5441903"><ele>861.0</ele><time>2026-04-05T12:32:58.304Z</time></trkpt><trkpt lat="41.6574968" lon="-4.5443458"><ele>860.5</ele><time>2026-04-05T12:32:59.288Z</time></trkpt><trkpt lat="41.6574698" lon="-4.5445357"><ele>860.0</ele><time>2026-04-05T12:33:00.31Z</time></trkpt><trkpt lat="41.6574155" lon="-4.5447591"><ele>859.6666666666667</ele><time>2026-04-05T12:33:01.298Z</time></trkpt><trkpt lat="41.6573504" lon="-4.544997"><ele>859.3333333333333</ele><time>2026-04-05T12:33:02.304Z</time></trkpt><trkpt lat="41.6573001" lon="-4.5452228"><ele>859.0</ele><time>2026-04-05T12:33:03.299Z</time></trkpt><trkpt lat="41.657259" lon="-4.5454349"><ele>859.75</ele><time>2026-04-05T12:33:04.29Z</time></trkpt><trkpt lat="41.657224" lon="-4.5456169"><ele>860.5</ele><time>2026-04-05T12:33:05.303Z</time></trkpt><trkpt lat="41.6571858" lon="-4.5457924"><ele>861.25</ele><time>2026-04-05T12:33:06.305Z</time></trkpt><trkpt lat="41.6571402" lon="-4.545959"><ele>862.0</ele><time>2026-04-05T12:33:07.299Z</time></trkpt><trkpt lat="41.6571018" lon="-4.5461008"><ele>861.75</ele><time>2026-04-05T12:33:08.299Z</time></trkpt><trkpt lat="41.6570805" lon="-4.5462396"><ele>861.5</ele><time>2026-04-05T12:33:09.303Z</time></trkpt><trkpt lat="41.6570548" lon="-4.5463999"><ele>861.25</ele><time>2026-04-05T12:33:10.309Z</time></trkpt><trkpt lat="41.6570195" lon="-4.5465621"><ele>861.0</ele><time>2026-04-05T12:33:11.31Z</time></trkpt><trkpt lat="41.6569895" lon="-4.5467392"><ele>861.0</ele><time>2026-04-05T12:33:12.306Z</time></trkpt><trkpt lat="41.6569574" lon="-4.5469392"><ele>861.0</ele><time>2026-04-05T12:33:13.297Z</time></trkpt><trkpt lat="41.6569281" lon="-4.5471496"><ele>861.0</ele><time>2026-04-05T12:33:14.317Z</time></trkpt><trkpt lat="41.656903" lon="-4.5473343"><ele>861.0</ele><time>2026-04-05T12:33:15.311Z</time></trkpt><trkpt lat="41.6568817" lon="-4.5475028"><ele>861.0</ele><time>2026-04-05T12:33:16.31Z</time></trkpt><trkpt lat="41.6568553" lon="-4.547662"><ele>861.0</ele><time>2026-04-05T12:33:17.314Z</time></trkpt><trkpt lat="41.6568242" lon="-4.5477992"><ele>861.0</ele><time>2026-04-05T12:33:18.313Z</time></trkpt><trkpt lat="41.6567868" lon="-4.5480576"><ele>861.4</ele><time>2026-04-05T12:33:20.305Z</time></trkpt><trkpt lat="41.6567981" lon="-4.548179"><ele>861.8</ele><time>2026-04-05T12:33:21.311Z</time></trkpt><trkpt lat="41.656805" lon="-4.5482953"><ele>862.1999999999999</ele><time>2026-04-05T12:33:22.31Z</time></trkpt><trkpt lat="41.6567999" lon="-4.5484181"><ele>862.5999999999999</ele><time>2026-04-05T12:33:23.31Z</time></trkpt><trkpt lat="41.6567832" lon="-4.5485468"><ele>863.0</ele><time>2026-04-05T12:33:24.314Z</time></trkpt><trkpt lat="41.656767" lon="-4.5486678"><ele>862.8</ele><time>2026-04-05T12:33:25.325Z</time></trkpt><trkpt lat="41.6567588" lon="-4.5487917"><ele>862.5999999999999</ele><time>2026-04-05T12:33:26.316Z</time></trkpt><trkpt lat="41.656748" lon="-4.5489378"><ele>862.4000000000001</ele><time>2026-04-05T12:33:27.317Z</time></trkpt><trkpt lat="41.6567402" lon="-4.5490921"><ele>862.2</ele><time>2026-04-05T12:33:28.314Z</time></trkpt><trkpt lat="41.6567344" lon="-4.5492507"><ele>862.0</ele><time>2026-04-05T12:33:29.316Z</time></trkpt><trkpt lat="41.6567365" lon="-4.5494351"><ele>861.75</ele><time>2026-04-05T12:33:30.31Z</time></trkpt><trkpt lat="41.6567289" lon="-4.5496378"><ele>861.5</ele><time>2026-04-05T12:33:31.317Z</time></trkpt><trkpt lat="41.656712" lon="-4.549827"><ele>861.25</ele><time>2026-04-05T12:33:32.304Z</time></trkpt><trkpt lat="41.6566971" lon="-4.5500013"><ele>861.0</ele><time>2026-04-05T12:33:33.311Z</time></trkpt><trkpt lat="41.6566899" lon="-4.5501712"><ele>861.0</ele><time>2026-04-05T12:33:34.31Z</time></trkpt><trkpt lat="41.6566767" lon="-4.5503433"><ele>861.0</ele><time>2026-04-05T12:33:35.314Z</time></trkpt><trkpt lat="41.6566674" lon="-4.5505127"><ele>861.0</ele><time>2026-04-05T12:33:36.305Z</time></trkpt><trkpt lat="41.656647" lon="-4.5506727"><ele>861.0</ele><time>2026-04-05T12:33:37.309Z</time></trkpt><trkpt lat="41.6566248" lon="-4.5508198"><ele>860.8</ele><time>2026-04-05T12:33:38.311Z</time></trkpt><trkpt lat="41.656598" lon="-4.550959"><ele>860.5999999999999</ele><time>2026-04-05T12:33:39.312Z</time></trkpt><trkpt lat="41.656568" lon="-4.5510881"><ele>860.4</ele><time>2026-04-05T12:33:40.299Z</time></trkpt><trkpt lat="41.6565242" lon="-4.5512031"><ele>860.2</ele><time>2026-04-05T12:33:41.298Z</time></trkpt><trkpt lat="41.6564698" lon="-4.5512957"><ele>860.0</ele><time>2026-04-05T12:33:42.311Z</time></trkpt><trkpt lat="41.6564129" lon="-4.5513883"><ele>860.0</ele><time>2026-04-05T12:33:43.317Z</time></trkpt><trkpt lat="41.6563514" lon="-4.5514843"><ele>860.0</ele><time>2026-04-05T12:33:44.308Z</time></trkpt><trkpt lat="41.6562771" lon="-4.5515598"><ele>860.0</ele><time>2026-04-05T12:33:45.312Z</time></trkpt><trkpt lat="41.6561945" lon="-4.5516052"><ele>860.0</ele><time>2026-04-05T12:33:46.304Z</time></trkpt><trkpt lat="41.6560841" lon="-4.551635"><ele>860.0</ele><time>2026-04-05T12:33:47.308Z</time></trkpt><trkpt lat="41.6559801" lon="-4.5516457"><ele>859.75</ele><time>2026-04-05T12:33:48.294Z</time></trkpt><trkpt lat="41.6559143" lon="-4.551662"><ele>859.5</ele><time>2026-04-05T12:33:49.299Z</time></trkpt><trkpt lat="41.6558493" lon="-4.5518187"><ele>859.25</ele><time>2026-04-05T12:33:51.307Z</time></trkpt><trkpt lat="41.6558356" lon="-4.5519623"><ele>859.0</ele><time>2026-04-05T12:33:52.308Z</time></trkpt><trkpt lat="41.6558097" lon="-4.552154"><ele>858.0</ele><time>2026-04-05T12:33:53.31Z</time></trkpt><trkpt lat="41.655775" lon="-4.5523926"><ele>857.0</ele><time>2026-04-05T12:33:54.307Z</time></trkpt><trkpt lat="41.6557428" lon="-4.5526933"><ele>856.0</ele><time>2026-04-05T12:33:55.3Z</time></trkpt><trkpt lat="41.6557148" lon="-4.5530042"><ele>856.0</ele><time>2026-04-05T12:33:56.309Z</time></trkpt><trkpt lat="41.6556897" lon="-4.5532782"><ele>856.0</ele><time>2026-04-05T12:33:57.294Z</time></trkpt><trkpt lat="41.6556649" lon="-4.5535133"><ele>856.0</ele><time>2026-04-05T12:33:58.293Z</time></trkpt><trkpt lat="41.6556415" lon="-4.5537195"><ele>855.8</ele><time>2026-04-05T12:33:59.294Z</time></trkpt><trkpt lat="41.6556273" lon="-4.553885"><ele>855.5999999999999</ele><time>2026-04-05T12:34:00.293Z</time></trkpt><trkpt lat="41.6556129" lon="-4.5540183"><ele>855.4</ele><time>2026-04-05T12:34:01.292Z</time></trkpt><trkpt lat="41.6555977" lon="-4.554118"><ele>855.2</ele><time>2026-04-05T12:34:02.304Z</time></trkpt><trkpt lat="41.655581" lon="-4.5542123"><ele>855.0</ele><time>2026-04-05T12:34:04.292Z</time></trkpt><trkpt lat="41.6555742" lon="-4.5543706"><ele>855.0</ele><time>2026-04-05T12:34:17.31Z</time></trkpt><trkpt lat="41.655567" lon="-4.5545279"><ele>855.0</ele><time>2026-04-05T12:34:18.309Z</time></trkpt><trkpt lat="41.655565" lon="-4.5547401"><ele>855.0</ele><time>2026-04-05T12:34:19.303Z</time></trkpt><trkpt lat="41.6555548" lon="-4.5549904"><ele>855.0</ele><time>2026-04-05T12:34:20.31Z</time></trkpt><trkpt lat="41.6555236" lon="-4.5552896"><ele>855.0</ele><time>2026-04-05T12:34:21.309Z</time></trkpt><trkpt lat="41.6555033" lon="-4.5555672"><ele>855.0</ele><time>2026-04-05T12:34:22.3Z</time></trkpt><trkpt lat="41.6554779" lon="-4.5558026"><ele>855.0</ele><time>2026-04-05T12:34:23.299Z</time></trkpt><trkpt lat="41.6554539" lon="-4.5560077"><ele>855.0</ele><time>2026-04-05T12:34:24.303Z</time></trkpt><trkpt lat="41.6554401" lon="-4.5561955"><ele>855.0</ele><time>2026-04-05T12:34:25.306Z</time></trkpt><trkpt lat="41.6554348" lon="-4.5563893"><ele>855.0</ele><time>2026-04-05T12:34:26.303Z</time></trkpt><trkpt lat="41.6554187" lon="-4.5565969"><ele>855.25</ele><time>2026-04-05T12:34:27.322Z</time></trkpt><trkpt lat="41.6554078" lon="-4.5567656"><ele>855.5</ele><time>2026-04-05T12:34:28.299Z</time></trkpt><trkpt lat="41.6554123" lon="-4.5569131"><ele>855.75</ele><time>2026-04-05T12:34:29.302Z</time></trkpt><trkpt lat="41.6554246" lon="-4.5570483"><ele>856.0</ele><time>2026-04-05T12:34:30.3Z</time></trkpt><trkpt lat="41.6554221" lon="-4.5572116"><ele>856.3333333333333</ele><time>2026-04-05T12:34:31.3Z</time></trkpt><trkpt lat="41.6554195" lon="-4.5574128"><ele>856.6666666666667</ele><time>2026-04-05T12:34:32.311Z</time></trkpt><trkpt lat="41.6554058" lon="-4.5576219"><ele>857.0</ele><time>2026-04-05T12:34:33.304Z</time></trkpt><trkpt lat="41.6553927" lon="-4.5578501"><ele>857.3333333333334</ele><time>2026-04-05T12:34:34.309Z</time></trkpt><trkpt lat="41.6553832" lon="-4.5580779"><ele>857.6666666666667</ele><time>2026-04-05T12:34:35.309Z</time></trkpt><trkpt lat="41.6553791" lon="-4.5583042"><ele>858.0</ele><time>2026-04-05T12:34:36.297Z</time></trkpt><trkpt lat="41.65538" lon="-4.5585431"><ele>857.6666666666667</ele><time>2026-04-05T12:34:37.309Z</time></trkpt><trkpt lat="41.6553792" lon="-4.5587765"><ele>857.3333333333334</ele><time>2026-04-05T12:34:38.304Z</time></trkpt><trkpt lat="41.6553692" lon="-4.5589928"><ele>857.0</ele><time>2026-04-05T12:34:39.306Z</time></trkpt><trkpt lat="41.6553521" lon="-4.5591975"><ele>857.0</ele><time>2026-04-05T12:34:40.296Z</time></trkpt><trkpt lat="41.6553393" lon="-4.5593836"><ele>857.0</ele><time>2026-04-05T12:34:41.298Z</time></trkpt><trkpt lat="41.6553254" lon="-4.5595452"><ele>857.0</ele><time>2026-04-05T12:34:42.311Z</time></trkpt><trkpt lat="41.6553147" lon="-4.5597071"><ele>857.0</ele><time>2026-04-05T12:34:43.31Z</time></trkpt><trkpt lat="41.6553089" lon="-4.5598938"><ele>857.6666666666667</ele><time>2026-04-05T12:34:44.298Z</time></trkpt><trkpt lat="41.655309" lon="-4.5601167"><ele>858.3333333333333</ele><time>2026-04-05T12:34:45.305Z</time></trkpt><trkpt lat="41.6553149" lon="-4.5603672"><ele>859.0</ele><time>2026-04-05T12:34:46.296Z</time></trkpt><trkpt lat="41.6553195" lon="-4.5606397"><ele>859.0</ele><time>2026-04-05T12:34:47.312Z</time></trkpt><trkpt lat="41.6553247" lon="-4.5608955"><ele>859.0</ele><time>2026-04-05T12:34:48.307Z</time></trkpt><trkpt lat="41.6553324" lon="-4.5611353"><ele>859.0</ele><time>2026-04-05T12:34:49.314Z</time></trkpt><trkpt lat="41.6553362" lon="-4.5613781"><ele>858.6666666666666</ele><time>2026-04-05T12:34:50.305Z</time></trkpt><trkpt lat="41.6553314" lon="-4.561635"><ele>858.3333333333333</ele><time>2026-04-05T12:34:51.304Z</time></trkpt><trkpt lat="41.6553203" lon="-4.5618933"><ele>858.0</ele><time>2026-04-05T12:34:52.313Z</time></trkpt><trkpt lat="41.655314" lon="-4.5621281"><ele>858.3333333333333</ele><time>2026-04-05T12:34:53.315Z</time></trkpt><trkpt lat="41.6553038" lon="-4.5623363"><ele>858.6666666666666</ele><time>2026-04-05T12:34:54.314Z</time></trkpt><trkpt lat="41.6552903" lon="-4.5625294"><ele>859.0</ele><time>2026-04-05T12:34:55.313Z</time></trkpt><trkpt lat="41.6552766" lon="-4.5627336"><ele>858.3333333333333</ele><time>2026-04-05T12:34:56.312Z</time></trkpt><trkpt lat="41.6552677" lon="-4.5629627"><ele>857.6666666666667</ele><time>2026-04-05T12:34:57.314Z</time></trkpt><trkpt lat="41.6552563" lon="-4.5632158"><ele>857.0</ele><time>2026-04-05T12:34:58.319Z</time></trkpt><trkpt lat="41.6552366" lon="-4.5634587"><ele>857.0</ele><time>2026-04-05T12:34:59.314Z</time></trkpt><trkpt lat="41.6552171" lon="-4.5636882"><ele>857.0</ele><time>2026-04-05T12:35:00.311Z</time></trkpt><trkpt lat="41.6552044" lon="-4.563893"><ele>857.0</ele><time>2026-04-05T12:35:01.312Z</time></trkpt><trkpt lat="41.6551897" lon="-4.5640884"><ele>857.0</ele><time>2026-04-05T12:35:02.309Z</time></trkpt><trkpt lat="41.6551621" lon="-4.5642976"><ele>857.0</ele><time>2026-04-05T12:35:03.301Z</time></trkpt><trkpt lat="41.6551262" lon="-4.5645245"><ele>857.0</ele><time>2026-04-05T12:35:04.308Z</time></trkpt><trkpt lat="41.6550818" lon="-4.5647437"><ele>857.5</ele><time>2026-04-05T12:35:05.298Z</time></trkpt><trkpt lat="41.6550431" lon="-4.5649391"><ele>858.0</ele><time>2026-04-05T12:35:06.311Z</time></trkpt><trkpt lat="41.6550106" lon="-4.5651285"><ele>858.5</ele><time>2026-04-05T12:35:07.312Z</time></trkpt><trkpt lat="41.6549848" lon="-4.5653129"><ele>859.0</ele><time>2026-04-05T12:35:08.311Z</time></trkpt><trkpt lat="41.6549592" lon="-4.5654943"><ele>859.0</ele><time>2026-04-05T12:35:09.313Z</time></trkpt><trkpt lat="41.6549307" lon="-4.5656829"><ele>859.0</ele><time>2026-04-05T12:35:10.31Z</time></trkpt><trkpt lat="41.6549094" lon="-4.5658985"><ele>859.0</ele><time>2026-04-05T12:35:11.309Z</time></trkpt><trkpt lat="41.6548857" lon="-4.5661106"><ele>859.0</ele><time>2026-04-05T12:35:12.305Z</time></trkpt><trkpt lat="41.6548575" lon="-4.566323"><ele>859.0</ele><time>2026-04-05T12:35:13.302Z</time></trkpt><trkpt lat="41.6548163" lon="-4.5665411"><ele>859.0</ele><time>2026-04-05T12:35:14.3Z</time></trkpt><trkpt lat="41.654775" lon="-4.5667774"><ele>859.0</ele><time>2026-04-05T12:35:15.31Z</time></trkpt><trkpt lat="41.6547424" lon="-4.5670089"><ele>859.0</ele><time>2026-04-05T12:35:16.303Z</time></trkpt><trkpt lat="41.654705" lon="-4.5672262"><ele>859.0</ele><time>2026-04-05T12:35:17.314Z</time></trkpt><trkpt lat="41.6546582" lon="-4.5674435"><ele>859.0</ele><time>2026-04-05T12:35:18.31Z</time></trkpt><trkpt lat="41.6546112" lon="-4.5676542"><ele>859.0</ele><time>2026-04-05T12:35:19.313Z</time></trkpt><trkpt lat="41.6545597" lon="-4.5678536"><ele>859.0</ele><time>2026-04-05T12:35:20.307Z</time></trkpt><trkpt lat="41.6544969" lon="-4.5680521"><ele>859.0</ele><time>2026-04-05T12:35:21.301Z</time></trkpt><trkpt lat="41.6544264" lon="-4.5682458"><ele>859.0</ele><time>2026-04-05T12:35:22.312Z</time></trkpt><trkpt lat="41.6543549" lon="-4.5684566"><ele>859.0</ele><time>2026-04-05T12:35:23.307Z</time></trkpt><trkpt lat="41.6542969" lon="-4.5686442"><ele>858.75</ele><time>2026-04-05T12:35:24.308Z</time></trkpt><trkpt lat="41.6542403" lon="-4.5688166"><ele>858.5</ele><time>2026-04-05T12:35:25.304Z</time></trkpt><trkpt lat="41.6541971" lon="-4.5689879"><ele>858.25</ele><time>2026-04-05T12:35:26.314Z</time></trkpt><trkpt lat="41.6541547" lon="-4.5691697"><ele>858.0</ele><time>2026-04-05T12:35:27.307Z</time></trkpt><trkpt lat="41.6541104" lon="-4.5693471"><ele>857.6666666666667</ele><time>2026-04-05T12:35:28.315Z</time></trkpt><trkpt lat="41.6540493" lon="-4.5695343"><ele>857.3333333333334</ele><time>2026-04-05T12:35:29.337Z</time></trkpt><trkpt lat="41.6539852" lon="-4.5697252"><ele>857.0</ele><time>2026-04-05T12:35:30.305Z</time></trkpt><trkpt lat="41.6539181" lon="-4.5699391"><ele>857.0</ele><time>2026-04-05T12:35:31.311Z</time></trkpt><trkpt lat="41.6538472" lon="-4.5701689"><ele>857.0</ele><time>2026-04-05T12:35:32.311Z</time></trkpt><trkpt lat="41.653776" lon="-4.5704"><ele>857.0</ele><time>2026-04-05T12:35:33.302Z</time></trkpt><trkpt lat="41.6537108" lon="-4.5706052"><ele>857.0</ele><time>2026-04-05T12:35:34.309Z</time></trkpt><trkpt lat="41.6536583" lon="-4.5707942"><ele>857.0</ele><time>2026-04-05T12:35:35.302Z</time></trkpt><trkpt lat="41.6536154" lon="-4.5709757"><ele>857.0</ele><time>2026-04-05T12:35:36.311Z</time></trkpt><trkpt lat="41.6535807" lon="-4.5711416"><ele>857.0</ele><time>2026-04-05T12:35:37.305Z</time></trkpt><trkpt lat="41.6535287" lon="-4.5713184"><ele>857.0</ele><time>2026-04-05T12:35:38.304Z</time></trkpt><trkpt lat="41.6534489" lon="-4.5714913"><ele>857.0</ele><time>2026-04-05T12:35:39.303Z</time></trkpt><trkpt lat="41.6533601" lon="-4.5716802"><ele>857.0</ele><time>2026-04-05T12:35:40.302Z</time></trkpt><trkpt lat="41.6532877" lon="-4.5718799"><ele>857.3333333333334</ele><time>2026-04-05T12:35:41.3Z</time></trkpt><trkpt lat="41.6532332" lon="-4.5720982"><ele>857.6666666666667</ele><time>2026-04-05T12:35:42.309Z</time></trkpt><trkpt lat="41.6531759" lon="-4.5723186"><ele>858.0</ele><time>2026-04-05T12:35:43.3Z</time></trkpt><trkpt lat="41.653105" lon="-4.572517"><ele>858.0</ele><time>2026-04-05T12:35:44.301Z</time></trkpt><trkpt lat="41.6530442" lon="-4.5726938"><ele>858.0</ele><time>2026-04-05T12:35:45.311Z</time></trkpt><trkpt lat="41.6530064" lon="-4.572874"><ele>858.0</ele><time>2026-04-05T12:35:46.308Z</time></trkpt><trkpt lat="41.6529524" lon="-4.5730874"><ele>858.3333333333333</ele><time>2026-04-05T12:35:47.312Z</time></trkpt><trkpt lat="41.6528923" lon="-4.5733147"><ele>858.6666666666666</ele><time>2026-04-05T12:35:48.311Z</time></trkpt><trkpt lat="41.6528146" lon="-4.5735398"><ele>859.0</ele><time>2026-04-05T12:35:49.319Z</time></trkpt><trkpt lat="41.6527329" lon="-4.573751"><ele>859.0</ele><time>2026-04-05T12:35:50.312Z</time></trkpt><trkpt lat="41.6526455" lon="-4.5739775"><ele>859.0</ele><time>2026-04-05T12:35:51.314Z</time></trkpt><trkpt lat="41.6525626" lon="-4.5742102"><ele>859.0</ele><time>2026-04-05T12:35:52.318Z</time></trkpt><trkpt lat="41.6524922" lon="-4.574429"><ele>858.6666666666666</ele><time>2026-04-05T12:35:53.318Z</time></trkpt><trkpt lat="41.6524104" lon="-4.5746526"><ele>858.3333333333333</ele><time>2026-04-05T12:35:54.311Z</time></trkpt><trkpt lat="41.6523412" lon="-4.5748661"><ele>858.0</ele><time>2026-04-05T12:35:55.318Z</time></trkpt><trkpt lat="41.6522652" lon="-4.5750987"><ele>857.6666666666667</ele><time>2026-04-05T12:35:56.307Z</time></trkpt><trkpt lat="41.6521799" lon="-4.5753619"><ele>857.3333333333334</ele><time>2026-04-05T12:35:57.308Z</time></trkpt><trkpt lat="41.652074" lon="-4.5756351"><ele>857.0</ele><time>2026-04-05T12:35:58.314Z</time></trkpt><trkpt lat="41.6519629" lon="-4.5759"><ele>857.0</ele><time>2026-04-05T12:35:59.326Z</time></trkpt><trkpt lat="41.651868" lon="-4.5761616"><ele>857.0</ele><time>2026-04-05T12:36:00.312Z</time></trkpt><trkpt lat="41.6517799" lon="-4.5764429"><ele>857.0</ele><time>2026-04-05T12:36:01.311Z</time></trkpt><trkpt lat="41.6517025" lon="-4.576726"><ele>857.0</ele><time>2026-04-05T12:36:02.312Z</time></trkpt><trkpt lat="41.651618" lon="-4.5769862"><ele>857.0</ele><time>2026-04-05T12:36:03.302Z</time></trkpt><trkpt lat="41.6515462" lon="-4.5772224"><ele>857.0</ele><time>2026-04-05T12:36:04.31Z</time></trkpt><trkpt lat="41.6514743" lon="-4.5774502"><ele>856.6666666666667</ele><time>2026-04-05T12:36:05.313Z</time></trkpt><trkpt lat="41.6514105" lon="-4.5776598"><ele>856.3333333333333</ele><time>2026-04-05T12:36:06.314Z</time></trkpt><trkpt lat="41.6513497" lon="-4.5778608"><ele>856.0</ele><time>2026-04-05T12:36:07.305Z</time></trkpt><trkpt lat="41.6512695" lon="-4.5780783"><ele>856.3333333333333</ele><time>2026-04-05T12:36:08.306Z</time></trkpt><trkpt lat="41.6511636" lon="-4.5783152"><ele>856.6666666666667</ele><time>2026-04-05T12:36:09.302Z</time></trkpt><trkpt lat="41.6510392" lon="-4.5785532"><ele>857.0</ele><time>2026-04-05T12:36:10.309Z</time></trkpt><trkpt lat="41.6509243" lon="-4.5787641"><ele>856.3333333333334</ele><time>2026-04-05T12:36:11.303Z</time></trkpt><trkpt lat="41.6508294" lon="-4.5789718"><ele>855.6666666666667</ele><time>2026-04-05T12:36:12.303Z</time></trkpt><trkpt lat="41.6507491" lon="-4.5791991"><ele>855.0</ele><time>2026-04-05T12:36:13.303Z</time></trkpt><trkpt lat="41.6506749" lon="-4.5794488"><ele>854.3333333333333</ele><time>2026-04-05T12:36:14.316Z</time></trkpt><trkpt lat="41.6506142" lon="-4.5796978"><ele>853.6666666666666</ele><time>2026-04-05T12:36:15.304Z</time></trkpt><trkpt lat="41.6505576" lon="-4.5799123"><ele>853.0</ele><time>2026-04-05T12:36:16.299Z</time></trkpt><trkpt lat="41.6505135" lon="-4.5800971"><ele>853.0</ele><time>2026-04-05T12:36:17.299Z</time></trkpt><trkpt lat="41.6504902" lon="-4.5802505"><ele>853.0</ele><time>2026-04-05T12:36:18.307Z</time></trkpt><trkpt lat="41.6504651" lon="-4.5804069"><ele>853.0</ele><time>2026-04-05T12:36:19.315Z</time></trkpt><trkpt lat="41.6504609" lon="-4.5805645"><ele>853.0</ele><time>2026-04-05T12:36:20.302Z</time></trkpt><trkpt lat="41.6504868" lon="-4.5807395"><ele>854.0</ele><time>2026-04-05T12:36:21.312Z</time></trkpt><trkpt lat="41.6505429" lon="-4.5809167"><ele>855.0</ele><time>2026-04-05T12:36:22.309Z</time></trkpt><trkpt lat="41.6506382" lon="-4.5811098"><ele>856.0</ele><time>2026-04-05T12:36:23.306Z</time></trkpt><trkpt lat="41.6507489" lon="-4.5813135"><ele>856.6666666666666</ele><time>2026-04-05T12:36:24.302Z</time></trkpt><trkpt lat="41.6508698" lon="-4.5815287"><ele>857.3333333333333</ele><time>2026-04-05T12:36:25.316Z</time></trkpt><trkpt lat="41.6509802" lon="-4.5817404"><ele>858.0</ele><time>2026-04-05T12:36:26.31Z</time></trkpt><trkpt lat="41.6510667" lon="-4.5819485"><ele>855.75</ele><time>2026-04-05T12:36:27.311Z</time></trkpt><trkpt lat="41.651132" lon="-4.5821503"><ele>853.5</ele><time>2026-04-05T12:36:28.313Z</time></trkpt><trkpt lat="41.6511782" lon="-4.5823213"><ele>851.25</ele><time>2026-04-05T12:36:29.315Z</time></trkpt><trkpt lat="41.6512302" lon="-4.5824456"><ele>849.0</ele><time>2026-04-05T12:36:30.308Z</time></trkpt><trkpt lat="41.6512955" lon="-4.582573"><ele>849.0</ele><time>2026-04-05T12:36:31.306Z</time></trkpt><trkpt lat="41.6513672" lon="-4.5827085"><ele>849.0</ele><time>2026-04-05T12:36:32.307Z</time></trkpt><trkpt lat="41.6514338" lon="-4.5828552"><ele>849.0</ele><time>2026-04-05T12:36:33.311Z</time></trkpt><trkpt lat="41.6514895" lon="-4.583007"><ele>849.0</ele><time>2026-04-05T12:36:34.311Z</time></trkpt><trkpt lat="41.6515408" lon="-4.583159"><ele>849.0</ele><time>2026-04-05T12:36:35.307Z</time></trkpt><trkpt lat="41.6515848" lon="-4.5832918"><ele>849.0</ele><time>2026-04-05T12:36:36.296Z</time></trkpt><trkpt lat="41.6516294" lon="-4.5833965"><ele>849.0</ele><time>2026-04-05T12:36:37.316Z</time></trkpt><trkpt lat="41.6516977" lon="-4.5834994"><ele>849.0</ele><time>2026-04-05T12:36:39.3Z</time></trkpt><trkpt lat="41.6516339" lon="-4.5835703"><ele>849.0</ele><time>2026-04-05T12:36:42.314Z</time></trkpt><trkpt lat="41.6515536" lon="-4.5836081"><ele>849.0</ele><time>2026-04-05T12:36:43.315Z</time></trkpt><trkpt lat="41.6514491" lon="-4.5836632"><ele>849.0</ele><time>2026-04-05T12:36:44.305Z</time></trkpt><trkpt lat="41.6513208" lon="-4.5837464"><ele>849.0</ele><time>2026-04-05T12:36:45.319Z</time></trkpt><trkpt lat="41.6511738" lon="-4.5838564"><ele>849.0</ele><time>2026-04-05T12:36:46.305Z</time></trkpt><trkpt lat="41.6510013" lon="-4.5839999"><ele>852.3333333333333</ele><time>2026-04-05T12:36:47.302Z</time></trkpt><trkpt lat="41.650816" lon="-4.5841435"><ele>855.6666666666666</ele><time>2026-04-05T12:36:48.304Z</time></trkpt><trkpt lat="41.6506406" lon="-4.5842836"><ele>859.0</ele><time>2026-04-05T12:36:49.317Z</time></trkpt><trkpt lat="41.6504847" lon="-4.5844051"><ele>859.0</ele><time>2026-04-05T12:36:50.316Z</time></trkpt><trkpt lat="41.6503567" lon="-4.5844991"><ele>859.0000000000001</ele><time>2026-04-05T12:36:51.302Z</time></trkpt><trkpt lat="41.6502505" lon="-4.5845738"><ele>859.0000000000001</ele><time>2026-04-05T12:36:52.319Z</time></trkpt><trkpt lat="41.6501709" lon="-4.5846269"><ele>859.0</ele><time>2026-04-05T12:36:53.305Z</time></trkpt><trkpt lat="41.6501121" lon="-4.5846699"><ele>859.0</ele><time>2026-04-05T12:36:54.317Z</time></trkpt><trkpt lat="41.6500853" lon="-4.5847923"><ele>858.6</ele><time>2026-04-05T12:36:56.31Z</time></trkpt><trkpt lat="41.650104" lon="-4.5848895"><ele>858.2</ele><time>2026-04-05T12:36:57.321Z</time></trkpt><trkpt lat="41.6501225" lon="-4.5850218"><ele>857.8000000000001</ele><time>2026-04-05T12:36:58.313Z</time></trkpt><trkpt lat="41.6501335" lon="-4.5851802"><ele>857.4000000000001</ele><time>2026-04-05T12:36:59.312Z</time></trkpt><trkpt lat="41.6501498" lon="-4.5853649"><ele>857.0</ele><time>2026-04-05T12:37:00.308Z</time></trkpt><trkpt lat="41.6501724" lon="-4.5855612"><ele>857.0</ele><time>2026-04-05T12:37:01.335Z</time></trkpt><trkpt lat="41.6501957" lon="-4.585744"><ele>857.0</ele><time>2026-04-05T12:37:02.315Z</time></trkpt><trkpt lat="41.6502163" lon="-4.5859049"><ele>857.0</ele><time>2026-04-05T12:37:03.32Z</time></trkpt><trkpt lat="41.6502247" lon="-4.5860865"><ele>857.0</ele><time>2026-04-05T12:37:04.31Z</time></trkpt><trkpt lat="41.6502241" lon="-4.5862879"><ele>858.0</ele><time>2026-04-05T12:37:05.305Z</time></trkpt><trkpt lat="41.6502146" lon="-4.5865188"><ele>859.0</ele><time>2026-04-05T12:37:06.312Z</time></trkpt><trkpt lat="41.6501951" lon="-4.5867417"><ele>860.0</ele><time>2026-04-05T12:37:07.314Z</time></trkpt><trkpt lat="41.6501596" lon="-4.5869485"><ele>859.6666666666667</ele><time>2026-04-05T12:37:08.316Z</time></trkpt><trkpt lat="41.6501199" lon="-4.5871477"><ele>859.3333333333333</ele><time>2026-04-05T12:37:09.316Z</time></trkpt><trkpt lat="41.6500604" lon="-4.5873728"><ele>859.0</ele><time>2026-04-05T12:37:10.314Z</time></trkpt><trkpt lat="41.6499964" lon="-4.5876228"><ele>858.3333333333333</ele><time>2026-04-05T12:37:11.313Z</time></trkpt><trkpt lat="41.6499246" lon="-4.5878982"><ele>857.6666666666667</ele><time>2026-04-05T12:37:12.313Z</time></trkpt><trkpt lat="41.6498456" lon="-4.5881762"><ele>857.0</ele><time>2026-04-05T12:37:13.309Z</time></trkpt><trkpt lat="41.6497715" lon="-4.5884144"><ele>857.0</ele><time>2026-04-05T12:37:14.306Z</time></trkpt><trkpt lat="41.6497134" lon="-4.5886289"><ele>857.0</ele><time>2026-04-05T12:37:15.313Z</time></trkpt><trkpt lat="41.6496601" lon="-4.5888355"><ele>857.0</ele><time>2026-04-05T12:37:16.316Z</time></trkpt><trkpt lat="41.6496077" lon="-4.5890516"><ele>856.6666666666667</ele><time>2026-04-05T12:37:17.312Z</time></trkpt><trkpt lat="41.6495608" lon="-4.5892554"><ele>856.3333333333333</ele><time>2026-04-05T12:37:18.317Z</time></trkpt><trkpt lat="41.6495141" lon="-4.5894624"><ele>856.0</ele><time>2026-04-05T12:37:19.315Z</time></trkpt><trkpt lat="41.649474" lon="-4.5896895"><ele>856.0</ele><time>2026-04-05T12:37:20.314Z</time></trkpt><trkpt lat="41.6494337" lon="-4.5899197"><ele>856.0</ele><time>2026-04-05T12:37:21.314Z</time></trkpt><trkpt lat="41.6494053" lon="-4.5901571"><ele>856.0</ele><time>2026-04-05T12:37:22.314Z</time></trkpt><trkpt lat="41.6493777" lon="-4.5903742"><ele>856.3333333333333</ele><time>2026-04-05T12:37:23.316Z</time></trkpt><trkpt lat="41.6493481" lon="-4.5905843"><ele>856.6666666666667</ele><time>2026-04-05T12:37:24.314Z</time></trkpt><trkpt lat="41.6493181" lon="-4.5908171"><ele>857.0</ele><time>2026-04-05T12:37:25.31Z</time></trkpt><trkpt lat="41.6492781" lon="-4.59106"><ele>856.6666666666667</ele><time>2026-04-05T12:37:26.313Z</time></trkpt><trkpt lat="41.6492378" lon="-4.5913157"><ele>856.3333333333333</ele><time>2026-04-05T12:37:27.314Z</time></trkpt><trkpt lat="41.6491913" lon="-4.5915854"><ele>856.0</ele><time>2026-04-05T12:37:28.341Z</time></trkpt><trkpt lat="41.6491471" lon="-4.5918224"><ele>856.0</ele><time>2026-04-05T12:37:29.329Z</time></trkpt><trkpt lat="41.6490851" lon="-4.5920421"><ele>856.0</ele><time>2026-04-05T12:37:30.328Z</time></trkpt><trkpt lat="41.6490264" lon="-4.5922524"><ele>856.0</ele><time>2026-04-05T12:37:31.328Z</time></trkpt><trkpt lat="41.648972" lon="-4.5924521"><ele>856.0</ele><time>2026-04-05T12:37:32.345Z</time></trkpt><trkpt lat="41.6489247" lon="-4.592635"><ele>856.0</ele><time>2026-04-05T12:37:33.328Z</time></trkpt><trkpt lat="41.64888" lon="-4.592816"><ele>856.0</ele><time>2026-04-05T12:37:34.331Z</time></trkpt><trkpt lat="41.648828" lon="-4.5929854"><ele>856.0</ele><time>2026-04-05T12:37:35.327Z</time></trkpt><trkpt lat="41.6487815" lon="-4.5931578"><ele>856.0</ele><time>2026-04-05T12:37:36.322Z</time></trkpt><trkpt lat="41.6487374" lon="-4.5933534"><ele>856.0</ele><time>2026-04-05T12:37:37.325Z</time></trkpt><trkpt lat="41.6487033" lon="-4.5935561"><ele>856.0</ele><time>2026-04-05T12:37:38.318Z</time></trkpt><trkpt lat="41.6486746" lon="-4.5937427"><ele>856.0</ele><time>2026-04-05T12:37:39.328Z</time></trkpt><trkpt lat="41.6486479" lon="-4.5939098"><ele>856.0</ele><time>2026-04-05T12:37:40.327Z</time></trkpt><trkpt lat="41.6486145" lon="-4.5940677"><ele>856.0</ele><time>2026-04-05T12:37:41.322Z</time></trkpt><trkpt lat="41.6485668" lon="-4.5942156"><ele>856.0</ele><time>2026-04-05T12:37:42.325Z</time></trkpt><trkpt lat="41.6485275" lon="-4.5943461"><ele>856.1999999999999</ele><time>2026-04-05T12:37:43.331Z</time></trkpt><trkpt lat="41.6484936" lon="-4.5944766"><ele>856.3999999999999</ele><time>2026-04-05T12:37:44.329Z</time></trkpt><trkpt lat="41.6484715" lon="-4.5946048"><ele>856.6</ele><time>2026-04-05T12:37:45.335Z</time></trkpt><trkpt lat="41.6484657" lon="-4.594723"><ele>856.8</ele><time>2026-04-05T12:37:46.321Z</time></trkpt><trkpt lat="41.6484614" lon="-4.5948368"><ele>857.0</ele><time>2026-04-05T12:37:47.328Z</time></trkpt><trkpt lat="41.6484596" lon="-4.5949504"><ele>857.3333333333334</ele><time>2026-04-05T12:37:48.331Z</time></trkpt><trkpt lat="41.6484587" lon="-4.5950566"><ele>857.6666666666667</ele><time>2026-04-05T12:37:49.334Z</time></trkpt><trkpt lat="41.6484552" lon="-4.5951531"><ele>858.0</ele><time>2026-04-05T12:37:50.333Z</time></trkpt><trkpt lat="41.6484436" lon="-4.5952475"><ele>858.3333333333333</ele><time>2026-04-05T12:37:51.332Z</time></trkpt><trkpt lat="41.6484201" lon="-4.5953426"><ele>858.6666666666666</ele><time>2026-04-05T12:37:52.335Z</time></trkpt><trkpt lat="41.6483698" lon="-4.5954521"><ele>859.0</ele><time>2026-04-05T12:37:53.334Z</time></trkpt><trkpt lat="41.6482956" lon="-4.5955965"><ele>859.0</ele><time>2026-04-05T12:37:54.333Z</time></trkpt><trkpt lat="41.648198" lon="-4.595796"><ele>859.0</ele><time>2026-04-05T12:37:55.331Z</time></trkpt><trkpt lat="41.6480598" lon="-4.5960718"><ele>859.0</ele><time>2026-04-05T12:37:56.335Z</time></trkpt><trkpt lat="41.6479046" lon="-4.5963886"><ele>857.0</ele><time>2026-04-05T12:37:57.33Z</time></trkpt><trkpt lat="41.6477466" lon="-4.5967028"><ele>855.0</ele><time>2026-04-05T12:37:58.331Z</time></trkpt><trkpt lat="41.6476037" lon="-4.5969871"><ele>855.0</ele><time>2026-04-05T12:37:59.328Z</time></trkpt><trkpt lat="41.6474679" lon="-4.5972474"><ele>855.0</ele><time>2026-04-05T12:38:00.32Z</time></trkpt><trkpt lat="41.6473448" lon="-4.5974887"><ele>855.0</ele><time>2026-04-05T12:38:01.331Z</time></trkpt><trkpt lat="41.647236" lon="-4.5977311"><ele>855.0</ele><time>2026-04-05T12:38:02.33Z</time></trkpt><trkpt lat="41.6471222" lon="-4.597985"><ele>855.0</ele><time>2026-04-05T12:38:03.341Z</time></trkpt><trkpt lat="41.6470142" lon="-4.5982152"><ele>855.0</ele><time>2026-04-05T12:38:04.331Z</time></trkpt><trkpt lat="41.6469101" lon="-4.5984426"><ele>855.0</ele><time>2026-04-05T12:38:05.326Z</time></trkpt><trkpt lat="41.6467862" lon="-4.5987035"><ele>855.0</ele><time>2026-04-05T12:38:06.333Z</time></trkpt><trkpt lat="41.6466491" lon="-4.5989781"><ele>855.0</ele><time>2026-04-05T12:38:07.325Z</time></trkpt><trkpt lat="41.6465239" lon="-4.5992362"><ele>855.0</ele><time>2026-04-05T12:38:08.336Z</time></trkpt><trkpt lat="41.6464167" lon="-4.5994671"><ele>855.0</ele><time>2026-04-05T12:38:09.336Z</time></trkpt><trkpt lat="41.6463095" lon="-4.599695"><ele>855.0</ele><time>2026-04-05T12:38:10.333Z</time></trkpt><trkpt lat="41.6461953" lon="-4.5999202"><ele>855.0</ele><time>2026-04-05T12:38:11.325Z</time></trkpt><trkpt lat="41.6460864" lon="-4.6001285"><ele>855.0</ele><time>2026-04-05T12:38:12.334Z</time></trkpt><trkpt lat="41.6459771" lon="-4.6003549"><ele>855.0</ele><time>2026-04-05T12:38:13.336Z</time></trkpt><trkpt lat="41.6458633" lon="-4.6005846"><ele>855.0</ele><time>2026-04-05T12:38:14.325Z</time></trkpt><trkpt lat="41.6457458" lon="-4.6007917"><ele>855.0</ele><time>2026-04-05T12:38:15.337Z</time></trkpt><trkpt lat="41.6456241" lon="-4.6009442"><ele>855.0</ele><time>2026-04-05T12:38:16.32Z</time></trkpt><trkpt lat="41.6455076" lon="-4.6010805"><ele>855.0</ele><time>2026-04-05T12:38:17.329Z</time></trkpt><trkpt lat="41.6453994" lon="-4.6012057"><ele>855.0</ele><time>2026-04-05T12:38:18.326Z</time></trkpt><trkpt lat="41.645306" lon="-4.6013245"><ele>855.0</ele><time>2026-04-05T12:38:19.325Z</time></trkpt><trkpt lat="41.6452285" lon="-4.6014426"><ele>854.8333333333334</ele><time>2026-04-05T12:38:20.324Z</time></trkpt><trkpt lat="41.645158" lon="-4.6015527"><ele>854.6666666666667</ele><time>2026-04-05T12:38:21.334Z</time></trkpt><trkpt lat="41.6450935" lon="-4.6016467"><ele>854.5</ele><time>2026-04-05T12:38:22.335Z</time></trkpt><trkpt lat="41.6450383" lon="-4.6017117"><ele>854.3333333333334</ele><time>2026-04-05T12:38:23.339Z</time></trkpt><trkpt lat="41.6449602" lon="-4.6017608"><ele>854.1666666666667</ele><time>2026-04-05T12:38:25.314Z</time></trkpt><trkpt lat="41.6449031" lon="-4.6016946"><ele>854.0</ele><time>2026-04-05T12:38:27.32Z</time></trkpt><trkpt lat="41.6448497" lon="-4.6015622"><ele>854.0</ele><time>2026-04-05T12:38:29.339Z</time></trkpt><trkpt lat="41.6448112" lon="-4.6014456"><ele>854.0000000000001</ele><time>2026-04-05T12:38:30.334Z</time></trkpt><trkpt lat="41.6447731" lon="-4.6013216"><ele>854.0000000000001</ele><time>2026-04-05T12:38:31.334Z</time></trkpt><trkpt lat="41.6447353" lon="-4.6011841"><ele>854.0</ele><time>2026-04-05T12:38:32.331Z</time></trkpt><trkpt lat="41.6446863" lon="-4.6010318"><ele>854.0</ele><time>2026-04-05T12:38:33.334Z</time></trkpt><trkpt lat="41.6446367" lon="-4.6008813"><ele>854.0</ele><time>2026-04-05T12:38:34.348Z</time></trkpt><trkpt lat="41.6445785" lon="-4.6007295"><ele>854.0</ele><time>2026-04-05T12:38:35.329Z</time></trkpt><trkpt lat="41.6445089" lon="-4.600552"><ele>854.0</ele><time>2026-04-05T12:38:36.333Z</time></trkpt><trkpt lat="41.6444322" lon="-4.6003469"><ele>854.0</ele><time>2026-04-05T12:38:37.325Z</time></trkpt><trkpt lat="41.6443652" lon="-4.6001557"><ele>853.8000000000001</ele><time>2026-04-05T12:38:38.336Z</time></trkpt><trkpt lat="41.6443063" lon="-4.5999988"><ele>853.6000000000001</ele><time>2026-04-05T12:38:39.327Z</time></trkpt><trkpt lat="41.6442619" lon="-4.5998587"><ele>853.4</ele><time>2026-04-05T12:38:40.332Z</time></trkpt><trkpt lat="41.64422" lon="-4.5997336"><ele>853.2</ele><time>2026-04-05T12:38:41.334Z</time></trkpt><trkpt lat="41.6441911" lon="-4.5996246"><ele>853.0</ele><time>2026-04-05T12:38:42.321Z</time></trkpt><trkpt lat="41.6441638" lon="-4.5995419"><ele>852.5999999999999</ele><time>2026-04-05T12:38:43.325Z</time></trkpt><trkpt lat="41.644126" lon="-4.599419"><ele>852.1999999999999</ele><time>2026-04-05T12:38:45.326Z</time></trkpt><trkpt lat="41.6440543" lon="-4.5993754"><ele>851.8</ele><time>2026-04-05T12:38:48.334Z</time></trkpt><trkpt lat="41.6439852" lon="-4.59936"><ele>851.4</ele><time>2026-04-05T12:38:50.315Z</time></trkpt><trkpt lat="41.64389" lon="-4.5992044"><ele>851.0</ele><time>2026-04-05T12:38:52.337Z</time></trkpt><trkpt lat="41.6438501" lon="-4.5990642"><ele>851.0</ele><time>2026-04-05T12:38:53.333Z</time></trkpt><trkpt lat="41.6438125" lon="-4.5989227"><ele>851.0</ele><time>2026-04-05T12:38:54.336Z</time></trkpt><trkpt lat="41.6437798" lon="-4.5987973"><ele>851.0</ele><time>2026-04-05T12:38:55.321Z</time></trkpt><trkpt lat="41.6437544" lon="-4.598691"><ele>851.0</ele><time>2026-04-05T12:38:56.319Z</time></trkpt><trkpt lat="41.6437194" lon="-4.5985906"><ele>851.0</ele><time>2026-04-05T12:38:58.338Z</time></trkpt><trkpt lat="41.6436583" lon="-4.5986651"><ele>851.0</ele><time>2026-04-05T12:39:01.354Z</time></trkpt><trkpt lat="41.6436841" lon="-4.5987798"><ele>851.0</ele><time>2026-04-05T12:39:03.352Z</time></trkpt><trkpt lat="41.643718" lon="-4.598855"><ele>851.0</ele><time>2026-04-05T12:39:04.353Z</time></trkpt><trkpt lat="41.6437603" lon="-4.5989476"><ele>851.0</ele><time>2026-04-05T12:39:05.368Z</time></trkpt><trkpt lat="41.6438018" lon="-4.5990604"><ele>851.0</ele><time>2026-04-05T12:39:06.352Z</time></trkpt><trkpt lat="41.6438478" lon="-4.5992259"><ele>851.0</ele><time>2026-04-05T12:39:07.353Z</time></trkpt><trkpt lat="41.6439086" lon="-4.5994369"><ele>851.0</ele><time>2026-04-05T12:39:08.346Z</time></trkpt><trkpt lat="41.6439695" lon="-4.5996794"><ele>851.0</ele><time>2026-04-05T12:39:09.354Z</time></trkpt><trkpt lat="41.6440361" lon="-4.5999236"><ele>851.6666666666667</ele><time>2026-04-05T12:39:10.35Z</time></trkpt><trkpt lat="41.644101" lon="-4.6001373"><ele>852.3333333333333</ele><time>2026-04-05T12:39:11.349Z</time></trkpt><trkpt lat="41.6441585" lon="-4.6003509"><ele>853.0</ele><time>2026-04-05T12:39:12.348Z</time></trkpt><trkpt lat="41.6442282" lon="-4.6005767"><ele>853.0</ele><time>2026-04-05T12:39:13.341Z</time></trkpt><trkpt lat="41.644296" lon="-4.6008074"><ele>853.0</ele><time>2026-04-05T12:39:14.343Z</time></trkpt><trkpt lat="41.6443518" lon="-4.6010184"><ele>853.0</ele><time>2026-04-05T12:39:15.349Z</time></trkpt><trkpt lat="41.6444032" lon="-4.6012234"><ele>853.3333333333333</ele><time>2026-04-05T12:39:16.35Z</time></trkpt><trkpt lat="41.6444634" lon="-4.6014348"><ele>853.6666666666667</ele><time>2026-04-05T12:39:17.351Z</time></trkpt><trkpt lat="41.6445178" lon="-4.6016459"><ele>854.0</ele><time>2026-04-05T12:39:18.35Z</time></trkpt><trkpt lat="41.644572" lon="-4.6018501"><ele>854.0</ele><time>2026-04-05T12:39:19.356Z</time></trkpt><trkpt lat="41.6446276" lon="-4.6020392"><ele>854.0</ele><time>2026-04-05T12:39:20.348Z</time></trkpt><trkpt lat="41.6446897" lon="-4.6022174"><ele>854.0</ele><time>2026-04-05T12:39:21.352Z</time></trkpt><trkpt lat="41.6447495" lon="-4.6023617"><ele>854.0</ele><time>2026-04-05T12:39:22.35Z</time></trkpt><trkpt lat="41.6448073" lon="-4.6024952"><ele>854.0</ele><time>2026-04-05T12:39:23.345Z</time></trkpt><trkpt lat="41.6448535" lon="-4.6026059"><ele>854.0000000000001</ele><time>2026-04-05T12:39:24.346Z</time></trkpt><trkpt lat="41.6448948" lon="-4.6027035"><ele>854.0000000000001</ele><time>2026-04-05T12:39:25.352Z</time></trkpt><trkpt lat="41.6449234" lon="-4.6028531"><ele>854.0</ele><time>2026-04-05T12:39:27.342Z</time></trkpt><trkpt lat="41.6449014" lon="-4.6029851"><ele>854.0</ele><time>2026-04-05T12:39:29.358Z</time></trkpt><trkpt lat="41.644814" lon="-4.6030407"><ele>854.0</ele><time>2026-04-05T12:39:31.356Z</time></trkpt><trkpt lat="41.6447406" lon="-4.603035"><ele>854.0</ele><time>2026-04-05T12:39:32.357Z</time></trkpt><trkpt lat="41.6446325" lon="-4.603021"><ele>854.0</ele><time>2026-04-05T12:39:33.352Z</time></trkpt><trkpt lat="41.6444865" lon="-4.6030144"><ele>854.0</ele><time>2026-04-05T12:39:34.355Z</time></trkpt><trkpt lat="41.6443031" lon="-4.6030105"><ele>854.0</ele><time>2026-04-05T12:39:35.354Z</time></trkpt><trkpt lat="41.6440841" lon="-4.6030149"><ele>854.0</ele><time>2026-04-05T12:39:36.37Z</time></trkpt><trkpt lat="41.6438467" lon="-4.6030267"><ele>854.5</ele><time>2026-04-05T12:39:37.351Z</time></trkpt><trkpt lat="41.6436071" lon="-4.6030388"><ele>855.0</ele><time>2026-04-05T12:39:38.345Z</time></trkpt><trkpt lat="41.6433933" lon="-4.6030541"><ele>855.0</ele><time>2026-04-05T12:39:39.353Z</time></trkpt><trkpt lat="41.6432024" lon="-4.6030702"><ele>855.0</ele><time>2026-04-05T12:39:40.355Z</time></trkpt><trkpt lat="41.6430306" lon="-4.603088"><ele>855.0</ele><time>2026-04-05T12:39:41.357Z</time></trkpt><trkpt lat="41.6428811" lon="-4.6031023"><ele>855.25</ele><time>2026-04-05T12:39:42.356Z</time></trkpt><trkpt lat="41.6427476" lon="-4.6031177"><ele>855.5</ele><time>2026-04-05T12:39:43.344Z</time></trkpt><trkpt lat="41.6426145" lon="-4.6031456"><ele>855.75</ele><time>2026-04-05T12:39:44.344Z</time></trkpt><trkpt lat="41.642488" lon="-4.6032178"><ele>856.0</ele><time>2026-04-05T12:39:45.359Z</time></trkpt><trkpt lat="41.6423516" lon="-4.6033122"><ele>856.0</ele><time>2026-04-05T12:39:46.349Z</time></trkpt><trkpt lat="41.6422081" lon="-4.603427"><ele>856.0</ele><time>2026-04-05T12:39:47.353Z</time></trkpt><trkpt lat="41.6420627" lon="-4.6035565"><ele>856.0</ele><time>2026-04-05T12:39:48.344Z</time></trkpt><trkpt lat="41.6419043" lon="-4.603704"><ele>854.5</ele><time>2026-04-05T12:39:49.356Z</time></trkpt><trkpt lat="41.6417247" lon="-4.6038704"><ele>853.0</ele><time>2026-04-05T12:39:50.355Z</time></trkpt><trkpt lat="41.6415213" lon="-4.6040579"><ele>853.0</ele><time>2026-04-05T12:39:51.36Z</time></trkpt><trkpt lat="41.6413071" lon="-4.6042541"><ele>853.0</ele><time>2026-04-05T12:39:52.348Z</time></trkpt><trkpt lat="41.6410894" lon="-4.6044545"><ele>853.5</ele><time>2026-04-05T12:39:53.343Z</time></trkpt><trkpt lat="41.6408881" lon="-4.6046361"><ele>854.0</ele><time>2026-04-05T12:39:54.358Z</time></trkpt><trkpt lat="41.640707" lon="-4.6047955"><ele>854.0</ele><time>2026-04-05T12:39:55.348Z</time></trkpt><trkpt lat="41.6405363" lon="-4.6049379"><ele>854.0</ele><time>2026-04-05T12:39:56.35Z</time></trkpt><trkpt lat="41.6403732" lon="-4.6050764"><ele>854.0</ele><time>2026-04-05T12:39:57.356Z</time></trkpt><trkpt lat="41.6402151" lon="-4.6052087"><ele>853.75</ele><time>2026-04-05T12:39:58.357Z</time></trkpt><trkpt lat="41.6400695" lon="-4.6053295"><ele>853.5</ele><time>2026-04-05T12:39:59.341Z</time></trkpt><trkpt lat="41.6399515" lon="-4.6054393"><ele>853.25</ele><time>2026-04-05T12:40:00.356Z</time></trkpt><trkpt lat="41.6398664" lon="-4.6055504"><ele>853.0</ele><time>2026-04-05T12:40:01.346Z</time></trkpt><trkpt lat="41.6397878" lon="-4.6056668"><ele>853.0</ele><time>2026-04-05T12:40:02.346Z</time></trkpt><trkpt lat="41.6397178" lon="-4.6057941"><ele>853.0</ele><time>2026-04-05T12:40:03.354Z</time></trkpt><trkpt lat="41.639656" lon="-4.6059497"><ele>853.0</ele><time>2026-04-05T12:40:04.346Z</time></trkpt><trkpt lat="41.639589" lon="-4.6061403"><ele>853.0</ele><time>2026-04-05T12:40:05.351Z</time></trkpt><trkpt lat="41.6395132" lon="-4.6063537"><ele>852.0</ele><time>2026-04-05T12:40:06.349Z</time></trkpt><trkpt lat="41.6394247" lon="-4.6065825"><ele>851.0</ele><time>2026-04-05T12:40:07.375Z</time></trkpt><trkpt lat="41.6393255" lon="-4.6068127"><ele>850.0</ele><time>2026-04-05T12:40:08.353Z</time></trkpt><trkpt lat="41.6392171" lon="-4.6070489"><ele>850.0</ele><time>2026-04-05T12:40:09.352Z</time></trkpt><trkpt lat="41.6391116" lon="-4.6072984"><ele>850.0</ele><time>2026-04-05T12:40:10.352Z</time></trkpt><trkpt lat="41.6389965" lon="-4.6075603"><ele>850.0</ele><time>2026-04-05T12:40:11.36Z</time></trkpt><trkpt lat="41.6388839" lon="-4.6078199"><ele>850.3333333333333</ele><time>2026-04-05T12:40:12.358Z</time></trkpt><trkpt lat="41.6387683" lon="-4.6080677"><ele>850.6666666666667</ele><time>2026-04-05T12:40:13.35Z</time></trkpt><trkpt lat="41.6386568" lon="-4.6083066"><ele>851.0</ele><time>2026-04-05T12:40:14.343Z</time></trkpt><trkpt lat="41.6385594" lon="-4.6085245"><ele>850.3333333333334</ele><time>2026-04-05T12:40:15.347Z</time></trkpt><trkpt lat="41.6384698" lon="-4.6087244"><ele>849.6666666666667</ele><time>2026-04-05T12:40:16.347Z</time></trkpt><trkpt lat="41.6383862" lon="-4.6089162"><ele>849.0</ele><time>2026-04-05T12:40:17.361Z</time></trkpt><trkpt lat="41.6383099" lon="-4.6090961"><ele>849.0</ele><time>2026-04-05T12:40:18.352Z</time></trkpt><trkpt lat="41.6382389" lon="-4.6092713"><ele>849.0</ele><time>2026-04-05T12:40:19.358Z</time></trkpt><trkpt lat="41.638164" lon="-4.6094531"><ele>849.0</ele><time>2026-04-05T12:40:20.354Z</time></trkpt><trkpt lat="41.6380872" lon="-4.6096161"><ele>849.0</ele><time>2026-04-05T12:40:21.354Z</time></trkpt><trkpt lat="41.6380092" lon="-4.6097672"><ele>849.0</ele><time>2026-04-05T12:40:22.353Z</time></trkpt><trkpt lat="41.6379386" lon="-4.609921"><ele>849.0</ele><time>2026-04-05T12:40:23.35Z</time></trkpt><trkpt lat="41.6378539" lon="-4.6100854"><ele>849.0</ele><time>2026-04-05T12:40:24.356Z</time></trkpt><trkpt lat="41.637767" lon="-4.6102436"><ele>849.0</ele><time>2026-04-05T12:40:25.341Z</time></trkpt><trkpt lat="41.6376756" lon="-4.6103682"><ele>848.5</ele><time>2026-04-05T12:40:26.345Z</time></trkpt><trkpt lat="41.6375735" lon="-4.6104634"><ele>848.0</ele><time>2026-04-05T12:40:27.347Z</time></trkpt><trkpt lat="41.6374599" lon="-4.6105384"><ele>847.5</ele><time>2026-04-05T12:40:28.346Z</time></trkpt><trkpt lat="41.6373299" lon="-4.610623"><ele>847.0</ele><time>2026-04-05T12:40:29.351Z</time></trkpt><trkpt lat="41.6371822" lon="-4.6107211"><ele>847.0</ele><time>2026-04-05T12:40:30.355Z</time></trkpt><trkpt lat="41.6370251" lon="-4.610836"><ele>847.0</ele><time>2026-04-05T12:40:31.345Z</time></trkpt><trkpt lat="41.6368395" lon="-4.6109705"><ele>847.0</ele><time>2026-04-05T12:40:32.358Z</time></trkpt><trkpt lat="41.6366362" lon="-4.6111254"><ele>848.0</ele><time>2026-04-05T12:40:33.352Z</time></trkpt><trkpt lat="41.636412" lon="-4.6112971"><ele>849.0</ele><time>2026-04-05T12:40:34.357Z</time></trkpt><trkpt lat="41.6361729" lon="-4.6114751"><ele>848.0</ele><time>2026-04-05T12:40:35.356Z</time></trkpt><trkpt lat="41.6359475" lon="-4.6116396"><ele>847.0</ele><time>2026-04-05T12:40:36.355Z</time></trkpt><trkpt lat="41.6357434" lon="-4.611786"><ele>847.0</ele><time>2026-04-05T12:40:37.369Z</time></trkpt><trkpt lat="41.6355456" lon="-4.6119337"><ele>847.0</ele><time>2026-04-05T12:40:38.351Z</time></trkpt><trkpt lat="41.6353596" lon="-4.6120611"><ele>847.0</ele><time>2026-04-05T12:40:39.344Z</time></trkpt><trkpt lat="41.6351915" lon="-4.6121865"><ele>847.3333333333333</ele><time>2026-04-05T12:40:40.347Z</time></trkpt><trkpt lat="41.6350388" lon="-4.6122969"><ele>847.6666666666667</ele><time>2026-04-05T12:40:41.346Z</time></trkpt><trkpt lat="41.6348946" lon="-4.6124054"><ele>848.0</ele><time>2026-04-05T12:40:42.349Z</time></trkpt><trkpt lat="41.6347665" lon="-4.6125013"><ele>848.0</ele><time>2026-04-05T12:40:43.343Z</time></trkpt><trkpt lat="41.6346428" lon="-4.6125891"><ele>848.0</ele><time>2026-04-05T12:40:44.351Z</time></trkpt><trkpt lat="41.6345327" lon="-4.6126712"><ele>848.0</ele><time>2026-04-05T12:40:45.348Z</time></trkpt><trkpt lat="41.634422" lon="-4.612747"><ele>848.0</ele><time>2026-04-05T12:40:46.348Z</time></trkpt><trkpt lat="41.6343201" lon="-4.6128155"><ele>847.0</ele><time>2026-04-05T12:40:47.354Z</time></trkpt><trkpt lat="41.634236" lon="-4.6128727"><ele>846.0</ele><time>2026-04-05T12:40:48.342Z</time></trkpt><trkpt lat="41.6341758" lon="-4.6129253"><ele>845.0</ele><time>2026-04-05T12:40:49.358Z</time></trkpt><trkpt lat="41.6340699" lon="-4.6129933"><ele>844.0</ele><time>2026-04-05T12:40:51.352Z</time></trkpt><trkpt lat="41.6340151" lon="-4.6130372"><ele>843.0</ele><time>2026-04-05T12:40:52.355Z</time></trkpt><trkpt lat="41.6339037" lon="-4.6131186"><ele>843.0</ele><time>2026-04-05T12:40:54.355Z</time></trkpt><trkpt lat="41.6338419" lon="-4.6131678"><ele>843.0</ele><time>2026-04-05T12:40:55.358Z</time></trkpt><trkpt lat="41.6337766" lon="-4.6132123"><ele>843.0</ele><time>2026-04-05T12:40:56.353Z</time></trkpt><trkpt lat="41.6336692" lon="-4.613282"><ele>843.0</ele><time>2026-04-05T12:40:58.321Z</time></trkpt><trkpt lat="41.6335797" lon="-4.6133372"><ele>843.0</ele><time>2026-04-05T12:41:00.325Z</time></trkpt><trkpt lat="41.633513" lon="-4.6133691"><ele>843.0</ele><time>2026-04-05T12:41:02.325Z</time></trkpt><trkpt lat="41.633457" lon="-4.6134467"><ele>842.5999999999999</ele><time>2026-04-05T12:41:05.323Z</time></trkpt><trkpt lat="41.6334926" lon="-4.6135293"><ele>842.1999999999999</ele><time>2026-04-05T12:41:07.334Z</time></trkpt><trkpt lat="41.6335976" lon="-4.6136083"><ele>841.8</ele><time>2026-04-05T12:41:09.323Z</time></trkpt><trkpt lat="41.6336747" lon="-4.6136632"><ele>841.4</ele><time>2026-04-05T12:41:10.316Z</time></trkpt><trkpt lat="41.6337676" lon="-4.6137319"><ele>841.0</ele><time>2026-04-05T12:41:11.323Z</time></trkpt><trkpt lat="41.6338639" lon="-4.6138014"><ele>839.4</ele><time>2026-04-05T12:41:12.318Z</time></trkpt><trkpt lat="41.6339575" lon="-4.6138619"><ele>837.8</ele><time>2026-04-05T12:41:13.321Z</time></trkpt><trkpt lat="41.6340592" lon="-4.6139125"><ele>836.1999999999999</ele><time>2026-04-05T12:41:14.305Z</time></trkpt><trkpt lat="41.6341647" lon="-4.6139441"><ele>834.5999999999999</ele><time>2026-04-05T12:41:15.303Z</time></trkpt><trkpt lat="41.6342555" lon="-4.6139548"><ele>833.0</ele><time>2026-04-05T12:41:16.299Z</time></trkpt><trkpt lat="41.6343355" lon="-4.6139596"><ele>833.0</ele><time>2026-04-05T12:41:17.305Z</time></trkpt><trkpt lat="41.6344116" lon="-4.6139772"><ele>833.0</ele><time>2026-04-05T12:41:18.298Z</time></trkpt><trkpt lat="41.634478" lon="-4.6140145"><ele>833.0</ele><time>2026-04-05T12:41:19.301Z</time></trkpt><trkpt lat="41.6345364" lon="-4.6140691"><ele>833.0</ele><time>2026-04-05T12:41:20.3Z</time></trkpt><trkpt lat="41.6345896" lon="-4.6141266"><ele>833.0</ele><time>2026-04-05T12:41:21.298Z</time></trkpt><trkpt lat="41.634641" lon="-4.6141839"><ele>833.0</ele><time>2026-04-05T12:41:22.295Z</time></trkpt><trkpt lat="41.6346981" lon="-4.6142412"><ele>833.0</ele><time>2026-04-05T12:41:23.302Z</time></trkpt><trkpt lat="41.6347507" lon="-4.6143063"><ele>831.8333333333334</ele><time>2026-04-05T12:41:24.297Z</time></trkpt><trkpt lat="41.6347984" lon="-4.6143731"><ele>830.6666666666667</ele><time>2026-04-05T12:41:25.3Z</time></trkpt><trkpt lat="41.6348354" lon="-4.614452"><ele>829.5</ele><time>2026-04-05T12:41:26.301Z</time></trkpt><trkpt lat="41.6348738" lon="-4.6145429"><ele>828.3333333333333</ele><time>2026-04-05T12:41:27.3Z</time></trkpt><trkpt lat="41.6349118" lon="-4.6146402"><ele>827.1666666666666</ele><time>2026-04-05T12:41:28.303Z</time></trkpt><trkpt lat="41.6349405" lon="-4.6147461"><ele>826.0</ele><time>2026-04-05T12:41:29.304Z</time></trkpt><trkpt lat="41.6349633" lon="-4.6148548"><ele>823.1999999999999</ele><time>2026-04-05T12:41:30.302Z</time></trkpt><trkpt lat="41.6349893" lon="-4.614958"><ele>820.4</ele><time>2026-04-05T12:41:31.298Z</time></trkpt><trkpt lat="41.6350253" lon="-4.615075"><ele>817.6</ele><time>2026-04-05T12:41:32.292Z</time></trkpt><trkpt lat="41.6350742" lon="-4.6152133"><ele>814.8</ele><time>2026-04-05T12:41:33.301Z</time></trkpt><trkpt lat="41.6351297" lon="-4.6153586"><ele>812.0</ele><time>2026-04-05T12:41:34.305Z</time></trkpt><trkpt lat="41.6351861" lon="-4.6155027"><ele>810.75</ele><time>2026-04-05T12:41:35.305Z</time></trkpt><trkpt lat="41.6352451" lon="-4.6156421"><ele>809.5</ele><time>2026-04-05T12:41:36.309Z</time></trkpt><trkpt lat="41.6353105" lon="-4.6157729"><ele>808.25</ele><time>2026-04-05T12:41:37.303Z</time></trkpt><trkpt lat="41.6353844" lon="-4.6159204"><ele>807.0</ele><time>2026-04-05T12:41:38.298Z</time></trkpt><trkpt lat="41.6354811" lon="-4.6160771"><ele>802.6666666666667</ele><time>2026-04-05T12:41:39.322Z</time></trkpt><trkpt lat="41.6355841" lon="-4.6162344"><ele>798.3333333333334</ele><time>2026-04-05T12:41:40.311Z</time></trkpt><trkpt lat="41.6356834" lon="-4.6163875"><ele>794.0</ele><time>2026-04-05T12:41:41.315Z</time></trkpt><trkpt lat="41.6357792" lon="-4.6165287"><ele>794.0</ele><time>2026-04-05T12:41:42.309Z</time></trkpt><trkpt lat="41.6358868" lon="-4.6166847"><ele>794.0</ele><time>2026-04-05T12:41:43.307Z</time></trkpt><trkpt lat="41.6359974" lon="-4.6168512"><ele>794.0</ele><time>2026-04-05T12:41:44.319Z</time></trkpt><trkpt lat="41.6361007" lon="-4.6170084"><ele>792.25</ele><time>2026-04-05T12:41:45.316Z</time></trkpt><trkpt lat="41.6361824" lon="-4.6171656"><ele>790.5</ele><time>2026-04-05T12:41:46.317Z</time></trkpt><trkpt lat="41.6362535" lon="-4.6173319"><ele>788.75</ele><time>2026-04-05T12:41:47.314Z</time></trkpt><trkpt lat="41.6363103" lon="-4.6175213"><ele>787.0</ele><time>2026-04-05T12:41:48.306Z</time></trkpt><trkpt lat="41.6363783" lon="-4.6177385"><ele>784.3333333333333</ele><time>2026-04-05T12:41:49.316Z</time></trkpt><trkpt lat="41.6364407" lon="-4.6179494"><ele>781.6666666666667</ele><time>2026-04-05T12:41:50.313Z</time></trkpt><trkpt lat="41.6365011" lon="-4.6181401"><ele>779.0</ele><time>2026-04-05T12:41:51.314Z</time></trkpt><trkpt lat="41.636556" lon="-4.618332"><ele>779.0</ele><time>2026-04-05T12:41:52.313Z</time></trkpt><trkpt lat="41.6366181" lon="-4.6185279"><ele>779.0</ele><time>2026-04-05T12:41:53.321Z</time></trkpt><trkpt lat="41.6366769" lon="-4.6187079"><ele>779.0</ele><time>2026-04-05T12:41:54.327Z</time></trkpt><trkpt lat="41.6367428" lon="-4.6188702"><ele>779.0</ele><time>2026-04-05T12:41:55.315Z</time></trkpt><trkpt lat="41.6368085" lon="-4.6190144"><ele>777.25</ele><time>2026-04-05T12:41:56.318Z</time></trkpt><trkpt lat="41.6368724" lon="-4.6191473"><ele>775.5</ele><time>2026-04-05T12:41:57.313Z</time></trkpt><trkpt lat="41.6369525" lon="-4.6192856"><ele>773.75</ele><time>2026-04-05T12:41:58.322Z</time></trkpt><trkpt lat="41.6370519" lon="-4.619434"><ele>772.0</ele><time>2026-04-05T12:41:59.33Z</time></trkpt><trkpt lat="41.6371467" lon="-4.6195769"><ele>770.75</ele><time>2026-04-05T12:42:00.33Z</time></trkpt><trkpt lat="41.6372327" lon="-4.6197255"><ele>769.5</ele><time>2026-04-05T12:42:01.329Z</time></trkpt><trkpt lat="41.6373125" lon="-4.6198668"><ele>768.25</ele><time>2026-04-05T12:42:02.323Z</time></trkpt><trkpt lat="41.6373879" lon="-4.6199832"><ele>767.0</ele><time>2026-04-05T12:42:03.326Z</time></trkpt><trkpt lat="41.6374593" lon="-4.6200781"><ele>767.0</ele><time>2026-04-05T12:42:04.321Z</time></trkpt><trkpt lat="41.6375249" lon="-4.6201503"><ele>767.0</ele><time>2026-04-05T12:42:05.322Z</time></trkpt><trkpt lat="41.6375918" lon="-4.6201978"><ele>767.0</ele><time>2026-04-05T12:42:06.329Z</time></trkpt><trkpt lat="41.63766" lon="-4.6202371"><ele>767.0</ele><time>2026-04-05T12:42:07.329Z</time></trkpt><trkpt lat="41.6377309" lon="-4.6202572"><ele>767.0</ele><time>2026-04-05T12:42:08.313Z</time></trkpt><trkpt lat="41.6378139" lon="-4.6202366"><ele>767.0</ele><time>2026-04-05T12:42:09.309Z</time></trkpt><trkpt lat="41.6378958" lon="-4.6201885"><ele>766.0</ele><time>2026-04-05T12:42:10.324Z</time></trkpt><trkpt lat="41.6379742" lon="-4.6201152"><ele>765.0</ele><time>2026-04-05T12:42:11.318Z</time></trkpt><trkpt lat="41.6380527" lon="-4.6200329"><ele>764.0</ele><time>2026-04-05T12:42:12.325Z</time></trkpt><trkpt lat="41.6381314" lon="-4.6199762"><ele>763.0</ele><time>2026-04-05T12:42:13.321Z</time></trkpt><trkpt lat="41.6382131" lon="-4.6199381"><ele>762.0</ele><time>2026-04-05T12:42:14.327Z</time></trkpt><trkpt lat="41.638288" lon="-4.6199196"><ele>761.0</ele><time>2026-04-05T12:42:15.344Z</time></trkpt><trkpt lat="41.6383654" lon="-4.6199243"><ele>761.0</ele><time>2026-04-05T12:42:16.33Z</time></trkpt><trkpt lat="41.6384592" lon="-4.6199483"><ele>761.0</ele><time>2026-04-05T12:42:17.333Z</time></trkpt><trkpt lat="41.6385649" lon="-4.6200017"><ele>761.0</ele><time>2026-04-05T12:42:18.344Z</time></trkpt><trkpt lat="41.6386985" lon="-4.6200843"><ele>761.0</ele><time>2026-04-05T12:42:19.335Z</time></trkpt><trkpt lat="41.6388614" lon="-4.6201801"><ele>758.0</ele><time>2026-04-05T12:42:20.329Z</time></trkpt><trkpt lat="41.6390757" lon="-4.6203082"><ele>755.0</ele><time>2026-04-05T12:42:21.33Z</time></trkpt><trkpt lat="41.6393112" lon="-4.6204633"><ele>751.5</ele><time>2026-04-05T12:42:22.337Z</time></trkpt><trkpt lat="41.6395528" lon="-4.6206032"><ele>748.0</ele><time>2026-04-05T12:42:23.338Z</time></trkpt><trkpt lat="41.6397807" lon="-4.6207277"><ele>748.0</ele><time>2026-04-05T12:42:24.33Z</time></trkpt><trkpt lat="41.6399863" lon="-4.6208396"><ele>748.0</ele><time>2026-04-05T12:42:25.335Z</time></trkpt><trkpt lat="41.6401965" lon="-4.6209402"><ele>748.0</ele><time>2026-04-05T12:42:26.338Z</time></trkpt><trkpt lat="41.640418" lon="-4.6210429"><ele>747.3333333333334</ele><time>2026-04-05T12:42:27.334Z</time></trkpt><trkpt lat="41.6406337" lon="-4.6211282"><ele>746.6666666666666</ele><time>2026-04-05T12:42:28.331Z</time></trkpt><trkpt lat="41.6408489" lon="-4.6211907"><ele>746.0</ele><time>2026-04-05T12:42:29.333Z</time></trkpt><trkpt lat="41.64107" lon="-4.6212544"><ele>745.0</ele><time>2026-04-05T12:42:30.345Z</time></trkpt><trkpt lat="41.6413058" lon="-4.6213222"><ele>744.0</ele><time>2026-04-05T12:42:31.341Z</time></trkpt><trkpt lat="41.6415363" lon="-4.6213892"><ele>744.0</ele><time>2026-04-05T12:42:32.333Z</time></trkpt><trkpt lat="41.6417569" lon="-4.6214501"><ele>744.0</ele><time>2026-04-05T12:42:33.332Z</time></trkpt><trkpt lat="41.6419653" lon="-4.6215092"><ele>744.0</ele><time>2026-04-05T12:42:34.342Z</time></trkpt><trkpt lat="41.6421547" lon="-4.6215694"><ele>743.0</ele><time>2026-04-05T12:42:35.341Z</time></trkpt><trkpt lat="41.6423264" lon="-4.6216294"><ele>742.0</ele><time>2026-04-05T12:42:36.344Z</time></trkpt><trkpt lat="41.6424839" lon="-4.6216866"><ele>741.0</ele><time>2026-04-05T12:42:37.329Z</time></trkpt><trkpt lat="41.6426319" lon="-4.6217532"><ele>741.0</ele><time>2026-04-05T12:42:38.332Z</time></trkpt><trkpt lat="41.6427696" lon="-4.6218322"><ele>741.0</ele><time>2026-04-05T12:42:39.334Z</time></trkpt><trkpt lat="41.6429072" lon="-4.6219379"><ele>741.0</ele><time>2026-04-05T12:42:40.336Z</time></trkpt><trkpt lat="41.6430569" lon="-4.6220753"><ele>740.0</ele><time>2026-04-05T12:42:41.349Z</time></trkpt><trkpt lat="41.6432096" lon="-4.6222411"><ele>739.0</ele><time>2026-04-05T12:42:42.333Z</time></trkpt><trkpt lat="41.6433602" lon="-4.6224087"><ele>738.0</ele><time>2026-04-05T12:42:43.334Z</time></trkpt><trkpt lat="41.6435111" lon="-4.6225932"><ele>737.0</ele><time>2026-04-05T12:42:44.335Z</time></trkpt><trkpt lat="41.6436517" lon="-4.6228"><ele>736.0</ele><time>2026-04-05T12:42:45.33Z</time></trkpt><trkpt lat="41.6438017" lon="-4.6230275"><ele>735.0</ele><time>2026-04-05T12:42:46.344Z</time></trkpt><trkpt lat="41.6439468" lon="-4.6232655"><ele>734.0</ele><time>2026-04-05T12:42:47.341Z</time></trkpt><trkpt lat="41.6440781" lon="-4.6234741"><ele>733.0</ele><time>2026-04-05T12:42:48.337Z</time></trkpt><trkpt lat="41.6441972" lon="-4.6236671"><ele>732.0</ele><time>2026-04-05T12:42:49.339Z</time></trkpt><trkpt lat="41.6443157" lon="-4.6238464"><ele>732.0</ele><time>2026-04-05T12:42:50.344Z</time></trkpt><trkpt lat="41.6444329" lon="-4.6240169"><ele>732.0</ele><time>2026-04-05T12:42:51.341Z</time></trkpt><trkpt lat="41.6445498" lon="-4.6241913"><ele>732.0</ele><time>2026-04-05T12:42:52.351Z</time></trkpt><trkpt lat="41.6446669" lon="-4.6243543"><ele>729.6666666666666</ele><time>2026-04-05T12:42:53.349Z</time></trkpt><trkpt lat="41.6447921" lon="-4.6245057"><ele>727.3333333333333</ele><time>2026-04-05T12:42:54.341Z</time></trkpt><trkpt lat="41.6449194" lon="-4.6246314"><ele>725.0</ele><time>2026-04-05T12:42:55.334Z</time></trkpt><trkpt lat="41.6450463" lon="-4.6247427"><ele>725.0</ele><time>2026-04-05T12:42:56.335Z</time></trkpt><trkpt lat="41.6451751" lon="-4.6248347"><ele>725.0</ele><time>2026-04-05T12:42:57.334Z</time></trkpt><trkpt lat="41.6453178" lon="-4.6249144"><ele>725.0</ele><time>2026-04-05T12:42:58.345Z</time></trkpt><trkpt lat="41.6454826" lon="-4.6249955"><ele>723.6666666666666</ele><time>2026-04-05T12:42:59.346Z</time></trkpt><trkpt lat="41.6456613" lon="-4.6250815"><ele>722.3333333333334</ele><time>2026-04-05T12:43:00.331Z</time></trkpt><trkpt lat="41.6458651" lon="-4.6251848"><ele>721.0</ele><time>2026-04-05T12:43:01.327Z</time></trkpt><trkpt lat="41.646078" lon="-4.6252918"><ele>720.6666666666667</ele><time>2026-04-05T12:43:02.341Z</time></trkpt><trkpt lat="41.6462845" lon="-4.6253954"><ele>720.3333333333334</ele><time>2026-04-05T12:43:03.345Z</time></trkpt><trkpt lat="41.6464984" lon="-4.6255045"><ele>720.0</ele><time>2026-04-05T12:43:04.34Z</time></trkpt><trkpt lat="41.6467083" lon="-4.6256155"><ele>720.0</ele><time>2026-04-05T12:43:05.33Z</time></trkpt><trkpt lat="41.6469053" lon="-4.6257237"><ele>720.0</ele><time>2026-04-05T12:43:06.332Z</time></trkpt><trkpt lat="41.6470943" lon="-4.625837"><ele>720.0</ele><time>2026-04-05T12:43:07.344Z</time></trkpt><trkpt lat="41.6472769" lon="-4.6259554"><ele>720.3333333333334</ele><time>2026-04-05T12:43:08.335Z</time></trkpt><trkpt lat="41.6474433" lon="-4.6260664"><ele>720.6666666666667</ele><time>2026-04-05T12:43:09.338Z</time></trkpt><trkpt lat="41.647601" lon="-4.6261662"><ele>721.0</ele><time>2026-04-05T12:43:10.344Z</time></trkpt><trkpt lat="41.6477472" lon="-4.6262671"><ele>720.75</ele><time>2026-04-05T12:43:11.339Z</time></trkpt><trkpt lat="41.6478822" lon="-4.6263732"><ele>720.5</ele><time>2026-04-05T12:43:12.35Z</time></trkpt><trkpt lat="41.648001" lon="-4.6264733"><ele>720.25</ele><time>2026-04-05T12:43:13.328Z</time></trkpt><trkpt lat="41.6481127" lon="-4.6265702"><ele>720.0</ele><time>2026-04-05T12:43:14.339Z</time></trkpt><trkpt lat="41.6482231" lon="-4.626653"><ele>720.0</ele><time>2026-04-05T12:43:15.343Z</time></trkpt><trkpt lat="41.6483387" lon="-4.6267273"><ele>720.0</ele><time>2026-04-05T12:43:16.345Z</time></trkpt><trkpt lat="41.6484626" lon="-4.6268"><ele>720.0</ele><time>2026-04-05T12:43:17.345Z</time></trkpt><trkpt lat="41.6485804" lon="-4.6268738"><ele>720.0</ele><time>2026-04-05T12:43:18.344Z</time></trkpt><trkpt lat="41.6487016" lon="-4.6269466"><ele>719.5</ele><time>2026-04-05T12:43:19.351Z</time></trkpt><trkpt lat="41.6488336" lon="-4.6270102"><ele>719.0</ele><time>2026-04-05T12:43:20.345Z</time></trkpt><trkpt lat="41.6489767" lon="-4.6270628"><ele>718.5</ele><time>2026-04-05T12:43:21.349Z</time></trkpt><trkpt lat="41.6491312" lon="-4.6270935"><ele>718.0</ele><time>2026-04-05T12:43:22.346Z</time></trkpt><trkpt lat="41.6493078" lon="-4.6271075"><ele>718.0</ele><time>2026-04-05T12:43:23.339Z</time></trkpt><trkpt lat="41.6494854" lon="-4.6271095"><ele>718.0</ele><time>2026-04-05T12:43:24.342Z</time></trkpt><trkpt lat="41.649657" lon="-4.6270997"><ele>718.0</ele><time>2026-04-05T12:43:25.339Z</time></trkpt><trkpt lat="41.6498202" lon="-4.6270986"><ele>718.0</ele><time>2026-04-05T12:43:26.345Z</time></trkpt><trkpt lat="41.6499666" lon="-4.6271026"><ele>718.0</ele><time>2026-04-05T12:43:27.34Z</time></trkpt><trkpt lat="41.6501086" lon="-4.6271131"><ele>718.0</ele><time>2026-04-05T12:43:28.342Z</time></trkpt><trkpt lat="41.6502558" lon="-4.6271161"><ele>718.0</ele><time>2026-04-05T12:43:29.343Z</time></trkpt><trkpt lat="41.6504051" lon="-4.627114"><ele>717.5</ele><time>2026-04-05T12:43:30.335Z</time></trkpt><trkpt lat="41.6505345" lon="-4.6271244"><ele>717.0</ele><time>2026-04-05T12:43:31.345Z</time></trkpt><trkpt lat="41.6506721" lon="-4.6271365"><ele>716.5</ele><time>2026-04-05T12:43:32.341Z</time></trkpt><trkpt lat="41.6508285" lon="-4.6271468"><ele>716.0</ele><time>2026-04-05T12:43:33.344Z</time></trkpt><trkpt lat="41.6509887" lon="-4.6271546"><ele>715.25</ele><time>2026-04-05T12:43:34.341Z</time></trkpt><trkpt lat="41.6511319" lon="-4.6271614"><ele>714.5</ele><time>2026-04-05T12:43:35.347Z</time></trkpt><trkpt lat="41.6512725" lon="-4.6271703"><ele>713.75</ele><time>2026-04-05T12:43:36.346Z</time></trkpt><trkpt lat="41.6514083" lon="-4.62717"><ele>713.0</ele><time>2026-04-05T12:43:37.341Z</time></trkpt><trkpt lat="41.6515315" lon="-4.6271733"><ele>713.0</ele><time>2026-04-05T12:43:38.345Z</time></trkpt><trkpt lat="41.651639" lon="-4.6271712"><ele>713.0</ele><time>2026-04-05T12:43:39.345Z</time></trkpt><trkpt lat="41.6517418" lon="-4.6271725"><ele>713.0</ele><time>2026-04-05T12:43:40.346Z</time></trkpt><trkpt lat="41.6518409" lon="-4.627184"><ele>713.0</ele><time>2026-04-05T12:43:41.347Z</time></trkpt><trkpt lat="41.6519379" lon="-4.6271944"><ele>713.0</ele><time>2026-04-05T12:43:42.345Z</time></trkpt><trkpt lat="41.6520323" lon="-4.6271989"><ele>713.0</ele><time>2026-04-05T12:43:43.359Z</time></trkpt><trkpt lat="41.6521075" lon="-4.6271994"><ele>713.0</ele><time>2026-04-05T12:43:44.345Z</time></trkpt><trkpt lat="41.6521744" lon="-4.6272058"><ele>713.0</ele><time>2026-04-05T12:43:45.346Z</time></trkpt><trkpt lat="41.6522975" lon="-4.6272021"><ele>713.0</ele><time>2026-04-05T12:43:47.341Z</time></trkpt><trkpt lat="41.6523716" lon="-4.627211"><ele>713.0</ele><time>2026-04-05T12:43:48.332Z</time></trkpt><trkpt lat="41.6524748" lon="-4.6272438"><ele>713.0</ele><time>2026-04-05T12:43:49.342Z</time></trkpt><trkpt lat="41.6525905" lon="-4.6272959"><ele>713.0</ele><time>2026-04-05T12:43:50.332Z</time></trkpt><trkpt lat="41.6527261" lon="-4.6273533"><ele>713.0</ele><time>2026-04-05T12:43:51.334Z</time></trkpt><trkpt lat="41.6528592" lon="-4.6273966"><ele>713.0</ele><time>2026-04-05T12:43:52.337Z</time></trkpt><trkpt lat="41.6529779" lon="-4.6274332"><ele>713.0</ele><time>2026-04-05T12:43:53.335Z</time></trkpt><trkpt lat="41.6530845" lon="-4.6274734"><ele>713.2</ele><time>2026-04-05T12:43:54.333Z</time></trkpt><trkpt lat="41.6531765" lon="-4.6275244"><ele>713.4</ele><time>2026-04-05T12:43:55.333Z</time></trkpt><trkpt lat="41.6532556" lon="-4.6275964"><ele>713.6</ele><time>2026-04-05T12:43:56.333Z</time></trkpt><trkpt lat="41.6533238" lon="-4.6276845"><ele>713.8000000000001</ele><time>2026-04-05T12:43:57.325Z</time></trkpt><trkpt lat="41.6533708" lon="-4.6277972"><ele>714.0</ele><time>2026-04-05T12:43:58.328Z</time></trkpt><trkpt lat="41.6534029" lon="-4.6279341"><ele>714.0</ele><time>2026-04-05T12:43:59.325Z</time></trkpt><trkpt lat="41.6534255" lon="-4.6281009"><ele>714.0</ele><time>2026-04-05T12:44:00.339Z</time></trkpt><trkpt lat="41.6534485" lon="-4.6282834"><ele>714.0</ele><time>2026-04-05T12:44:01.328Z</time></trkpt><trkpt lat="41.6534588" lon="-4.6284741"><ele>714.0</ele><time>2026-04-05T12:44:02.325Z</time></trkpt><trkpt lat="41.6534644" lon="-4.628688"><ele>713.75</ele><time>2026-04-05T12:44:03.334Z</time></trkpt><trkpt lat="41.6534781" lon="-4.6288848"><ele>713.5</ele><time>2026-04-05T12:44:04.327Z</time></trkpt><trkpt lat="41.6534978" lon="-4.6290627"><ele>713.25</ele><time>2026-04-05T12:44:05.326Z</time></trkpt><trkpt lat="41.653529" lon="-4.6292322"><ele>713.0</ele><time>2026-04-05T12:44:06.308Z</time></trkpt><trkpt lat="41.6535547" lon="-4.6293878"><ele>713.0</ele><time>2026-04-05T12:44:07.311Z</time></trkpt><trkpt lat="41.6535811" lon="-4.6295378"><ele>713.0</ele><time>2026-04-05T12:44:08.305Z</time></trkpt><trkpt lat="41.6536137" lon="-4.6296785"><ele>713.0</ele><time>2026-04-05T12:44:09.306Z</time></trkpt><trkpt lat="41.6536564" lon="-4.6298282"><ele>713.0</ele><time>2026-04-05T12:44:10.307Z</time></trkpt><trkpt lat="41.6537041" lon="-4.6299706"><ele>713.0</ele><time>2026-04-05T12:44:11.311Z</time></trkpt><trkpt lat="41.6537484" lon="-4.6301012"><ele>713.0</ele><time>2026-04-05T12:44:12.314Z</time></trkpt><trkpt lat="41.6537914" lon="-4.6302399"><ele>713.0</ele><time>2026-04-05T12:44:13.318Z</time></trkpt><trkpt lat="41.6538431" lon="-4.630402"><ele>713.0</ele><time>2026-04-05T12:44:14.331Z</time></trkpt><trkpt lat="41.6539" lon="-4.6305773"><ele>712.5</ele><time>2026-04-05T12:44:15.321Z</time></trkpt><trkpt lat="41.6539654" lon="-4.6307504"><ele>712.0</ele><time>2026-04-05T12:44:16.318Z</time></trkpt><trkpt lat="41.6540215" lon="-4.6309165"><ele>711.5</ele><time>2026-04-05T12:44:17.318Z</time></trkpt><trkpt lat="41.654085" lon="-4.6311006"><ele>711.0</ele><time>2026-04-05T12:44:18.315Z</time></trkpt><trkpt lat="41.6541447" lon="-4.6313052"><ele>710.6666666666666</ele><time>2026-04-05T12:44:19.326Z</time></trkpt><trkpt lat="41.6542004" lon="-4.6315215"><ele>710.3333333333333</ele><time>2026-04-05T12:44:20.322Z</time></trkpt><trkpt lat="41.6542288" lon="-4.6317744"><ele>710.0</ele><time>2026-04-05T12:44:21.312Z</time></trkpt><trkpt lat="41.6542587" lon="-4.6320383"><ele>709.6666666666666</ele><time>2026-04-05T12:44:22.318Z</time></trkpt><trkpt lat="41.654288" lon="-4.6322997"><ele>709.3333333333334</ele><time>2026-04-05T12:44:23.32Z</time></trkpt><trkpt lat="41.654319" lon="-4.6325302"><ele>709.0</ele><time>2026-04-05T12:44:24.323Z</time></trkpt><trkpt lat="41.6543406" lon="-4.6327608"><ele>708.6666666666667</ele><time>2026-04-05T12:44:25.327Z</time></trkpt><trkpt lat="41.6543703" lon="-4.6329939"><ele>708.3333333333334</ele><time>2026-04-05T12:44:26.33Z</time></trkpt><trkpt lat="41.6544044" lon="-4.6332068"><ele>708.0</ele><time>2026-04-05T12:44:27.327Z</time></trkpt><trkpt lat="41.6544417" lon="-4.6334141"><ele>707.75</ele><time>2026-04-05T12:44:28.33Z</time></trkpt><trkpt lat="41.6544739" lon="-4.6336124"><ele>707.5</ele><time>2026-04-05T12:44:29.325Z</time></trkpt><trkpt lat="41.6544919" lon="-4.6337926"><ele>707.25</ele><time>2026-04-05T12:44:30.319Z</time></trkpt><trkpt lat="41.6545009" lon="-4.633949"><ele>707.0</ele><time>2026-04-05T12:44:31.318Z</time></trkpt><trkpt lat="41.6544883" lon="-4.6340833"><ele>707.4000000000001</ele><time>2026-04-05T12:44:32.329Z</time></trkpt><trkpt lat="41.654474" lon="-4.6342076"><ele>707.8000000000001</ele><time>2026-04-05T12:44:33.326Z</time></trkpt><trkpt lat="41.65445" lon="-4.6343266"><ele>708.2</ele><time>2026-04-05T12:44:34.327Z</time></trkpt><trkpt lat="41.6544152" lon="-4.6344576"><ele>708.6</ele><time>2026-04-05T12:44:35.328Z</time></trkpt><trkpt lat="41.6543747" lon="-4.6346062"><ele>709.0</ele><time>2026-04-05T12:44:36.327Z</time></trkpt><trkpt lat="41.6543123" lon="-4.6347539"><ele>709.0</ele><time>2026-04-05T12:44:37.33Z</time></trkpt><trkpt lat="41.654254" lon="-4.634919"><ele>709.0</ele><time>2026-04-05T12:44:38.326Z</time></trkpt><trkpt lat="41.6542185" lon="-4.6350978"><ele>709.0</ele><time>2026-04-05T12:44:39.318Z</time></trkpt><trkpt lat="41.6542112" lon="-4.6352928"><ele>709.0</ele><time>2026-04-05T12:44:40.318Z</time></trkpt><trkpt lat="41.6542215" lon="-4.6354976"><ele>708.6666666666667</ele><time>2026-04-05T12:44:41.32Z</time></trkpt><trkpt lat="41.6542595" lon="-4.6357224"><ele>708.3333333333334</ele><time>2026-04-05T12:44:42.304Z</time></trkpt><trkpt lat="41.6543352" lon="-4.6359439"><ele>708.0</ele><time>2026-04-05T12:44:43.315Z</time></trkpt><trkpt lat="41.654442" lon="-4.6361386"><ele>708.0</ele><time>2026-04-05T12:44:44.307Z</time></trkpt><trkpt lat="41.6545533" lon="-4.6363614"><ele>708.0</ele><time>2026-04-05T12:44:45.342Z</time></trkpt><trkpt lat="41.6546529" lon="-4.6365845"><ele>708.0</ele><time>2026-04-05T12:44:46.314Z</time></trkpt><trkpt lat="41.6547456" lon="-4.6367879"><ele>707.3333333333334</ele><time>2026-04-05T12:44:47.32Z</time></trkpt><trkpt lat="41.654838" lon="-4.6369938"><ele>706.6666666666667</ele><time>2026-04-05T12:44:48.322Z</time></trkpt><trkpt lat="41.6549337" lon="-4.6372257"><ele>706.0</ele><time>2026-04-05T12:44:49.314Z</time></trkpt><trkpt lat="41.6550355" lon="-4.6374795"><ele>706.0</ele><time>2026-04-05T12:44:50.31Z</time></trkpt><trkpt lat="41.6551373" lon="-4.637722"><ele>706.0</ele><time>2026-04-05T12:44:51.313Z</time></trkpt><trkpt lat="41.6552343" lon="-4.6379417"><ele>706.0</ele><time>2026-04-05T12:44:52.321Z</time></trkpt><trkpt lat="41.6553249" lon="-4.6381452"><ele>706.0</ele><time>2026-04-05T12:44:53.325Z</time></trkpt><trkpt lat="41.655413" lon="-4.6383341"><ele>706.0</ele><time>2026-04-05T12:44:54.325Z</time></trkpt><trkpt lat="41.6555269" lon="-4.6385199"><ele>706.0</ele><time>2026-04-05T12:44:55.32Z</time></trkpt><trkpt lat="41.6556535" lon="-4.638663"><ele>706.0</ele><time>2026-04-05T12:44:56.32Z</time></trkpt><trkpt lat="41.655809" lon="-4.6387702"><ele>706.0</ele><time>2026-04-05T12:44:57.33Z</time></trkpt><trkpt lat="41.6559889" lon="-4.6388446"><ele>706.0</ele><time>2026-04-05T12:44:58.328Z</time></trkpt><trkpt lat="41.6561594" lon="-4.6388925"><ele>706.0</ele><time>2026-04-05T12:44:59.321Z</time></trkpt><trkpt lat="41.6562795" lon="-4.6389162"><ele>706.0</ele><time>2026-04-05T12:45:00.31Z</time></trkpt><trkpt lat="41.6563805" lon="-4.6389293"><ele>706.0</ele><time>2026-04-05T12:45:01.312Z</time></trkpt><trkpt lat="41.6564631" lon="-4.6389522"><ele>706.0</ele><time>2026-04-05T12:45:02.315Z</time></trkpt><trkpt lat="41.6565464" lon="-4.6390317"><ele>706.0</ele><time>2026-04-05T12:45:04.314Z</time></trkpt><trkpt lat="41.6565841" lon="-4.6391484"><ele>706.0</ele><time>2026-04-05T12:45:06.323Z</time></trkpt><trkpt lat="41.6565751" lon="-4.6392345"><ele>706.0</ele><time>2026-04-05T12:45:07.333Z</time></trkpt><trkpt lat="41.656549" lon="-4.6393651"><ele>706.0</ele><time>2026-04-05T12:45:08.333Z</time></trkpt><trkpt lat="41.656501" lon="-4.6395166"><ele>706.0</ele><time>2026-04-05T12:45:09.324Z</time></trkpt><trkpt lat="41.6564416" lon="-4.6396954"><ele>706.0</ele><time>2026-04-05T12:45:10.33Z</time></trkpt><trkpt lat="41.6563742" lon="-4.6398947"><ele>706.0</ele><time>2026-04-05T12:45:11.319Z</time></trkpt><trkpt lat="41.6563145" lon="-4.6401294"><ele>706.0</ele><time>2026-04-05T12:45:12.323Z</time></trkpt><trkpt lat="41.6562414" lon="-4.6403513"><ele>706.0</ele><time>2026-04-05T12:45:13.324Z</time></trkpt><trkpt lat="41.656171" lon="-4.640595"><ele>706.0</ele><time>2026-04-05T12:45:14.323Z</time></trkpt><trkpt lat="41.6561159" lon="-4.6408351"><ele>706.0</ele><time>2026-04-05T12:45:15.335Z</time></trkpt><trkpt lat="41.656067" lon="-4.6410474"><ele>706.0</ele><time>2026-04-05T12:45:16.324Z</time></trkpt><trkpt lat="41.6560049" lon="-4.6412625"><ele>706.3333333333334</ele><time>2026-04-05T12:45:17.324Z</time></trkpt><trkpt lat="41.6559351" lon="-4.6415096"><ele>706.6666666666666</ele><time>2026-04-05T12:45:18.33Z</time></trkpt><trkpt lat="41.6558527" lon="-4.6417591"><ele>707.0</ele><time>2026-04-05T12:45:19.333Z</time></trkpt><trkpt lat="41.6557671" lon="-4.6420159"><ele>707.0</ele><time>2026-04-05T12:45:20.332Z</time></trkpt><trkpt lat="41.655674" lon="-4.6422761"><ele>707.0</ele><time>2026-04-05T12:45:21.33Z</time></trkpt><trkpt lat="41.6556009" lon="-4.6425125"><ele>707.0</ele><time>2026-04-05T12:45:22.326Z</time></trkpt><trkpt lat="41.6555433" lon="-4.6427402"><ele>707.0</ele><time>2026-04-05T12:45:23.327Z</time></trkpt><trkpt lat="41.6554907" lon="-4.6429391"><ele>707.0</ele><time>2026-04-05T12:45:24.323Z</time></trkpt><trkpt lat="41.6554339" lon="-4.6431251"><ele>707.0</ele><time>2026-04-05T12:45:25.324Z</time></trkpt><trkpt lat="41.6553815" lon="-4.6433353"><ele>707.0</ele><time>2026-04-05T12:45:26.325Z</time></trkpt><trkpt lat="41.6553433" lon="-4.6435546"><ele>707.0</ele><time>2026-04-05T12:45:27.329Z</time></trkpt><trkpt lat="41.6552979" lon="-4.6437937"><ele>707.0</ele><time>2026-04-05T12:45:28.332Z</time></trkpt><trkpt lat="41.6552456" lon="-4.6440206"><ele>707.3333333333333</ele><time>2026-04-05T12:45:29.332Z</time></trkpt><trkpt lat="41.6551994" lon="-4.6442148"><ele>707.6666666666666</ele><time>2026-04-05T12:45:30.329Z</time></trkpt><trkpt lat="41.6551532" lon="-4.6444241"><ele>708.0</ele><time>2026-04-05T12:45:31.332Z</time></trkpt><trkpt lat="41.6551294" lon="-4.6446345"><ele>708.0</ele><time>2026-04-05T12:45:32.328Z</time></trkpt><trkpt lat="41.6550967" lon="-4.6448109"><ele>708.0</ele><time>2026-04-05T12:45:33.325Z</time></trkpt><trkpt lat="41.6550422" lon="-4.6449953"><ele>708.0</ele><time>2026-04-05T12:45:34.327Z</time></trkpt><trkpt lat="41.6549961" lon="-4.6451873"><ele>708.0</ele><time>2026-04-05T12:45:35.326Z</time></trkpt><trkpt lat="41.6549615" lon="-4.6453732"><ele>707.75</ele><time>2026-04-05T12:45:36.327Z</time></trkpt><trkpt lat="41.6549343" lon="-4.6455368"><ele>707.5</ele><time>2026-04-05T12:45:37.334Z</time></trkpt><trkpt lat="41.654915" lon="-4.645719"><ele>707.25</ele><time>2026-04-05T12:45:38.333Z</time></trkpt><trkpt lat="41.6548967" lon="-4.6459182"><ele>707.0</ele><time>2026-04-05T12:45:39.336Z</time></trkpt><trkpt lat="41.6548641" lon="-4.6461184"><ele>707.5</ele><time>2026-04-05T12:45:40.333Z</time></trkpt><trkpt lat="41.654833" lon="-4.6463184"><ele>708.0</ele><time>2026-04-05T12:45:41.33Z</time></trkpt><trkpt lat="41.6548156" lon="-4.6464968"><ele>708.5</ele><time>2026-04-05T12:45:42.325Z</time></trkpt><trkpt lat="41.6548053" lon="-4.6466578"><ele>709.0</ele><time>2026-04-05T12:45:43.329Z</time></trkpt><trkpt lat="41.6547972" lon="-4.6468078"><ele>709.0</ele><time>2026-04-05T12:45:44.326Z</time></trkpt><trkpt lat="41.6547651" lon="-4.6469512"><ele>709.0</ele><time>2026-04-05T12:45:45.324Z</time></trkpt><trkpt lat="41.6547147" lon="-4.6471032"><ele>709.0</ele><time>2026-04-05T12:45:46.343Z</time></trkpt><trkpt lat="41.6546745" lon="-4.6472815"><ele>709.0</ele><time>2026-04-05T12:45:47.332Z</time></trkpt><trkpt lat="41.6546361" lon="-4.6474765"><ele>709.0</ele><time>2026-04-05T12:45:48.333Z</time></trkpt><trkpt lat="41.6545905" lon="-4.6476805"><ele>709.0</ele><time>2026-04-05T12:45:49.333Z</time></trkpt><trkpt lat="41.6545493" lon="-4.6479048"><ele>709.0</ele><time>2026-04-05T12:45:50.33Z</time></trkpt><trkpt lat="41.6545177" lon="-4.6481071"><ele>709.0</ele><time>2026-04-05T12:45:51.329Z</time></trkpt><trkpt lat="41.6544783" lon="-4.6483388"><ele>709.0</ele><time>2026-04-05T12:45:52.327Z</time></trkpt><trkpt lat="41.6544434" lon="-4.6485428"><ele>709.0</ele><time>2026-04-05T12:45:53.327Z</time></trkpt><trkpt lat="41.6544093" lon="-4.6487095"><ele>708.0</ele><time>2026-04-05T12:45:54.318Z</time></trkpt><trkpt lat="41.6543872" lon="-4.6488563"><ele>707.0</ele><time>2026-04-05T12:45:55.328Z</time></trkpt><trkpt lat="41.6543723" lon="-4.649004"><ele>706.0</ele><time>2026-04-05T12:45:56.331Z</time></trkpt><trkpt lat="41.6543458" lon="-4.6491788"><ele>705.0</ele><time>2026-04-05T12:45:57.325Z</time></trkpt><trkpt lat="41.6543226" lon="-4.6493723"><ele>705.0</ele><time>2026-04-05T12:45:58.331Z</time></trkpt><trkpt lat="41.6542994" lon="-4.6495803"><ele>705.0</ele><time>2026-04-05T12:45:59.333Z</time></trkpt><trkpt lat="41.6542761" lon="-4.6498162"><ele>705.0</ele><time>2026-04-05T12:46:00.335Z</time></trkpt><trkpt lat="41.6542424" lon="-4.6500329"><ele>705.0</ele><time>2026-04-05T12:46:01.333Z</time></trkpt><trkpt lat="41.6542074" lon="-4.6502609"><ele>705.0</ele><time>2026-04-05T12:46:02.325Z</time></trkpt><trkpt lat="41.6541783" lon="-4.65051"><ele>705.0</ele><time>2026-04-05T12:46:03.333Z</time></trkpt><trkpt lat="41.6541734" lon="-4.6507489"><ele>705.3333333333334</ele><time>2026-04-05T12:46:04.323Z</time></trkpt><trkpt lat="41.6541545" lon="-4.6509666"><ele>705.6666666666667</ele><time>2026-04-05T12:46:05.33Z</time></trkpt><trkpt lat="41.6541429" lon="-4.651174"><ele>706.0</ele><time>2026-04-05T12:46:06.327Z</time></trkpt><trkpt lat="41.6541417" lon="-4.6513628"><ele>706.0</ele><time>2026-04-05T12:46:07.326Z</time></trkpt><trkpt lat="41.6541564" lon="-4.6515447"><ele>706.0</ele><time>2026-04-05T12:46:08.333Z</time></trkpt><trkpt lat="41.6541521" lon="-4.6517163"><ele>706.0</ele><time>2026-04-05T12:46:09.323Z</time></trkpt><trkpt lat="41.654125" lon="-4.6518925"><ele>706.0</ele><time>2026-04-05T12:46:10.323Z</time></trkpt><trkpt lat="41.6540719" lon="-4.6521059"><ele>706.3333333333334</ele><time>2026-04-05T12:46:11.315Z</time></trkpt><trkpt lat="41.6540148" lon="-4.6523173"><ele>706.6666666666666</ele><time>2026-04-05T12:46:12.322Z</time></trkpt><trkpt lat="41.6539737" lon="-4.652527"><ele>707.0</ele><time>2026-04-05T12:46:13.324Z</time></trkpt><trkpt lat="41.6539472" lon="-4.6527107"><ele>707.25</ele><time>2026-04-05T12:46:14.333Z</time></trkpt><trkpt lat="41.6539261" lon="-4.6528781"><ele>707.5</ele><time>2026-04-05T12:46:15.327Z</time></trkpt><trkpt lat="41.6538943" lon="-4.6530651"><ele>707.75</ele><time>2026-04-05T12:46:16.327Z</time></trkpt><trkpt lat="41.6538636" lon="-4.6532588"><ele>708.0</ele><time>2026-04-05T12:46:17.34Z</time></trkpt><trkpt lat="41.6538395" lon="-4.6534511"><ele>708.0</ele><time>2026-04-05T12:46:18.325Z</time></trkpt><trkpt lat="41.653818" lon="-4.6536612"><ele>708.0</ele><time>2026-04-05T12:46:19.328Z</time></trkpt><trkpt lat="41.6537928" lon="-4.6538411"><ele>708.0</ele><time>2026-04-05T12:46:20.324Z</time></trkpt><trkpt lat="41.6537696" lon="-4.6539863"><ele>708.0</ele><time>2026-04-05T12:46:21.322Z</time></trkpt><trkpt lat="41.6537562" lon="-4.6541107"><ele>708.0</ele><time>2026-04-05T12:46:22.325Z</time></trkpt><trkpt lat="41.653742" lon="-4.6542191"><ele>708.0</ele><time>2026-04-05T12:46:23.334Z</time></trkpt><trkpt lat="41.6537296" lon="-4.6543267"><ele>708.0</ele><time>2026-04-05T12:46:24.33Z</time></trkpt><trkpt lat="41.6537198" lon="-4.6544176"><ele>708.0</ele><time>2026-04-05T12:46:25.325Z</time></trkpt><trkpt lat="41.6537161" lon="-4.6545031"><ele>708.0</ele><time>2026-04-05T12:46:26.327Z</time></trkpt><trkpt lat="41.6537634" lon="-4.654635"><ele>708.0</ele><time>2026-04-05T12:46:28.337Z</time></trkpt><trkpt lat="41.6538635" lon="-4.6546816"><ele>708.0</ele><time>2026-04-05T12:46:30.337Z</time></trkpt><trkpt lat="41.6539463" lon="-4.6546873"><ele>708.0</ele><time>2026-04-05T12:46:31.325Z</time></trkpt><trkpt lat="41.654074" lon="-4.6546987"><ele>708.0</ele><time>2026-04-05T12:46:32.333Z</time></trkpt><trkpt lat="41.6542419" lon="-4.6547244"><ele>708.0</ele><time>2026-04-05T12:46:33.332Z</time></trkpt><trkpt lat="41.6544421" lon="-4.6547497"><ele>709.0</ele><time>2026-04-05T12:46:34.324Z</time></trkpt><trkpt lat="41.6546209" lon="-4.654772"><ele>710.0</ele><time>2026-04-05T12:46:35.324Z</time></trkpt><trkpt lat="41.6547901" lon="-4.6547707"><ele>711.0</ele><time>2026-04-05T12:46:36.316Z</time></trkpt><trkpt lat="41.654976" lon="-4.6547451"><ele>711.0</ele><time>2026-04-05T12:46:37.308Z</time></trkpt><trkpt lat="41.6551743" lon="-4.6546983"><ele>711.0</ele><time>2026-04-05T12:46:38.327Z</time></trkpt><trkpt lat="41.6553466" lon="-4.6546608"><ele>711.0</ele><time>2026-04-05T12:46:39.326Z</time></trkpt><trkpt lat="41.6555018" lon="-4.6546416"><ele>711.25</ele><time>2026-04-05T12:46:40.333Z</time></trkpt><trkpt lat="41.6556508" lon="-4.6546341"><ele>711.5</ele><time>2026-04-05T12:46:41.336Z</time></trkpt><trkpt lat="41.6557738" lon="-4.6546248"><ele>711.75</ele><time>2026-04-05T12:46:42.329Z</time></trkpt><trkpt lat="41.6558747" lon="-4.6546156"><ele>712.0</ele><time>2026-04-05T12:46:43.33Z</time></trkpt><trkpt lat="41.6559599" lon="-4.6546136"><ele>712.0</ele><time>2026-04-05T12:46:44.332Z</time></trkpt><trkpt lat="41.6560261" lon="-4.6545996"><ele>712.0</ele><time>2026-04-05T12:46:45.328Z</time></trkpt><trkpt lat="41.6561026" lon="-4.6545415"><ele>712.0</ele><time>2026-04-05T12:46:50.32Z</time></trkpt><trkpt lat="41.65622" lon="-4.6545003"><ele>712.0</ele><time>2026-04-05T12:46:52.321Z</time></trkpt><trkpt lat="41.6563432" lon="-4.6545241"><ele>712.0</ele><time>2026-04-05T12:46:54.328Z</time></trkpt><trkpt lat="41.6564511" lon="-4.6545553"><ele>712.1666666666667</ele><time>2026-04-05T12:46:56.325Z</time></trkpt><trkpt lat="41.6565158" lon="-4.6545356"><ele>712.3333333333334</ele><time>2026-04-05T12:46:57.319Z</time></trkpt><trkpt lat="41.6565744" lon="-4.6544833"><ele>712.5</ele><time>2026-04-05T12:46:58.326Z</time></trkpt><trkpt lat="41.6566145" lon="-4.6543968"><ele>712.6666666666666</ele><time>2026-04-05T12:46:59.311Z</time></trkpt><trkpt lat="41.6566375" lon="-4.6542949"><ele>712.8333333333333</ele><time>2026-04-05T12:47:00.313Z</time></trkpt><trkpt lat="41.6566308" lon="-4.6541784"><ele>713.0</ele><time>2026-04-05T12:47:01.314Z</time></trkpt><trkpt lat="41.6566133" lon="-4.6540752"><ele>713.1666666666666</ele><time>2026-04-05T12:47:02.308Z</time></trkpt><trkpt lat="41.6565979" lon="-4.6539791"><ele>713.3333333333333</ele><time>2026-04-05T12:47:03.309Z</time></trkpt><trkpt lat="41.6565773" lon="-4.65381"><ele>713.5</ele><time>2026-04-05T12:47:05.301Z</time></trkpt><trkpt lat="41.6565736" lon="-4.6537149"><ele>713.6666666666666</ele><time>2026-04-05T12:47:06.317Z</time></trkpt><trkpt lat="41.6565653" lon="-4.6536118"><ele>713.8333333333334</ele><time>2026-04-05T12:47:07.321Z</time></trkpt><trkpt lat="41.6565613" lon="-4.653504"><ele>714.0</ele><time>2026-04-05T12:47:08.321Z</time></trkpt><trkpt lat="41.6565581" lon="-4.6534075"><ele>714.0</ele><time>2026-04-05T12:47:09.316Z</time></trkpt><trkpt lat="41.6565561" lon="-4.6533192"><ele>714.0</ele><time>2026-04-05T12:47:10.314Z</time></trkpt><trkpt lat="41.6565592" lon="-4.6531622"><ele>714.0</ele><time>2026-04-05T12:47:12.313Z</time></trkpt><trkpt lat="41.6565622" lon="-4.6530142"><ele>714.0</ele><time>2026-04-05T12:47:14.318Z</time></trkpt><trkpt lat="41.6565426" lon="-4.6529054"><ele>714.0</ele><time>2026-04-05T12:47:16.319Z</time></trkpt><trkpt lat="41.6565287" lon="-4.6528009"><ele>714.4000000000001</ele><time>2026-04-05T12:47:18.314Z</time></trkpt><trkpt lat="41.6565217" lon="-4.6526863"><ele>714.8</ele><time>2026-04-05T12:47:20.319Z</time></trkpt><trkpt lat="41.6565156" lon="-4.6525573"><ele>715.2</ele><time>2026-04-05T12:47:22.312Z</time></trkpt><trkpt lat="41.6565" lon="-4.6524395"><ele>715.5999999999999</ele><time>2026-04-05T12:47:24.313Z</time></trkpt><trkpt lat="41.6564875" lon="-4.6523233"><ele>716.0</ele><time>2026-04-05T12:47:26.317Z</time></trkpt><trkpt lat="41.6564692" lon="-4.6521905"><ele>716.0</ele><time>2026-04-05T12:47:28.32Z</time></trkpt><trkpt lat="41.6564587" lon="-4.6520745"><ele>716.0</ele><time>2026-04-05T12:47:30.326Z</time></trkpt><trkpt lat="41.6564467" lon="-4.6519458"><ele>716.0</ele><time>2026-04-05T12:47:33.33Z</time></trkpt><trkpt lat="41.656436" lon="-4.651838"><ele>716.0</ele><time>2026-04-05T12:47:35.325Z</time></trkpt><trkpt lat="41.6564246" lon="-4.6516704"><ele>716.0</ele><time>2026-04-05T12:47:37.326Z</time></trkpt><trkpt lat="41.6564309" lon="-4.6515859"><ele>716.0</ele><time>2026-04-05T12:47:38.314Z</time></trkpt><trkpt lat="41.6564988" lon="-4.6514808"><ele>716.0</ele><time>2026-04-05T12:47:40.317Z</time></trkpt><trkpt lat="41.6566512" lon="-4.6514895"><ele>716.0</ele><time>2026-04-05T12:47:42.306Z</time></trkpt><trkpt lat="41.6567529" lon="-4.6515006"><ele>716.0</ele><time>2026-04-05T12:47:43.312Z</time></trkpt><trkpt lat="41.6568493" lon="-4.651496"><ele>716.0</ele><time>2026-04-05T12:47:44.311Z</time></trkpt><trkpt lat="41.6569284" lon="-4.6514838"><ele>716.0</ele><time>2026-04-05T12:47:45.314Z</time></trkpt><trkpt lat="41.6570179" lon="-4.6514624"><ele>718.0</ele><time>2026-04-05T12:47:47.318Z</time></trkpt><trkpt lat="41.6570995" lon="-4.6514571"><ele>718.0</ele><time>2026-04-05T12:47:50.333Z</time></trkpt><trkpt lat="41.6571523" lon="-4.6515561"><ele>718.0</ele><time>2026-04-05T12:47:53.321Z</time></trkpt></trkseg></trk></gpx>